<?xml version="1.0" encoding="UTF-8" standalone="no" ?>
<gpx xmlns="http://www.topografix.com/GPX/1/1" xmlns:xsi="http://www.w3.org/2001/XMLSchema-instance" xsi:schemaLocation="http://www.topografix.com/GPX/1/1 http://www.topografix.com/GPX/1/1/gpx.xsd" version="1.1" creator="VisuGPX - https://www.visugpx.com">
  <metadata>
    <name>Pountcho /La Roque</name>
    <desc><![CDATA[Ptit ballade velo en plat]]></desc>
  </metadata>
  <trk>
    <name><![CDATA[la roque]]></name>
    <trkseg>
      <trkpt lat="44.10302" lon="3.08821">
        <ele>363</ele>
        <time>2013-07-02T15:16:58Z</time>
      </trkpt>
      <trkpt lat="44.1031" lon="3.0883">
        <ele>359</ele>
        <time>2013-07-02T15:17:26Z</time>
      </trkpt>
      <trkpt lat="44.10317" lon="3.08823">
        <ele>358</ele>
        <time>2013-07-02T15:17:30Z</time>
      </trkpt>
      <trkpt lat="44.10327" lon="3.08827">
        <ele>361</ele>
        <time>2013-07-02T15:17:34Z</time>
      </trkpt>
      <trkpt lat="44.10334" lon="3.08837">
        <ele>364</ele>
        <time>2013-07-02T15:17:38Z</time>
      </trkpt>
      <trkpt lat="44.1034" lon="3.08852">
        <ele>366</ele>
        <time>2013-07-02T15:17:42Z</time>
      </trkpt>
      <trkpt lat="44.10335" lon="3.08862">
        <ele>364</ele>
        <time>2013-07-02T15:17:46Z</time>
      </trkpt>
      <trkpt lat="44.10327" lon="3.08866">
        <ele>364</ele>
        <time>2013-07-02T15:17:50Z</time>
      </trkpt>
      <trkpt lat="44.10319" lon="3.08882">
        <ele>368</ele>
        <time>2013-07-02T15:17:54Z</time>
      </trkpt>
      <trkpt lat="44.10318" lon="3.0891">
        <ele>365</ele>
        <time>2013-07-02T15:17:58Z</time>
      </trkpt>
      <trkpt lat="44.10321" lon="3.08938">
        <ele>363</ele>
        <time>2013-07-02T15:18:02Z</time>
      </trkpt>
      <trkpt lat="44.10318" lon="3.08965">
        <ele>360</ele>
        <time>2013-07-02T15:18:06Z</time>
      </trkpt>
      <trkpt lat="44.10321" lon="3.08989">
        <ele>361</ele>
        <time>2013-07-02T15:18:10Z</time>
      </trkpt>
      <trkpt lat="44.10321" lon="3.09005">
        <ele>361</ele>
        <time>2013-07-02T15:18:13Z</time>
      </trkpt>
      <trkpt lat="44.10322" lon="3.0901">
        <ele>360</ele>
        <time>2013-07-02T15:18:14Z</time>
      </trkpt>
      <trkpt lat="44.10319" lon="3.09033">
        <ele>362</ele>
        <time>2013-07-02T15:18:18Z</time>
      </trkpt>
      <trkpt lat="44.10312" lon="3.09054">
        <ele>363</ele>
        <time>2013-07-02T15:18:22Z</time>
      </trkpt>
      <trkpt lat="44.10307" lon="3.09073">
        <ele>365</ele>
        <time>2013-07-02T15:18:26Z</time>
      </trkpt>
      <trkpt lat="44.10297" lon="3.09096">
        <ele>370</ele>
        <time>2013-07-02T15:18:30Z</time>
      </trkpt>
      <trkpt lat="44.10289" lon="3.09114">
        <ele>373</ele>
        <time>2013-07-02T15:18:34Z</time>
      </trkpt>
      <trkpt lat="44.10279" lon="3.09137">
        <ele>376</ele>
        <time>2013-07-02T15:18:38Z</time>
      </trkpt>
      <trkpt lat="44.10268" lon="3.09161">
        <ele>379</ele>
        <time>2013-07-02T15:18:42Z</time>
      </trkpt>
      <trkpt lat="44.10255" lon="3.09181">
        <ele>379</ele>
        <time>2013-07-02T15:18:46Z</time>
      </trkpt>
      <trkpt lat="44.10239" lon="3.092">
        <ele>370</ele>
        <time>2013-07-02T15:18:50Z</time>
      </trkpt>
      <trkpt lat="44.10225" lon="3.0922">
        <ele>370</ele>
        <time>2013-07-02T15:18:54Z</time>
      </trkpt>
      <trkpt lat="44.10217" lon="3.09243">
        <ele>376</ele>
        <time>2013-07-02T15:18:58Z</time>
      </trkpt>
      <trkpt lat="44.10213" lon="3.09268">
        <ele>376</ele>
        <time>2013-07-02T15:19:02Z</time>
      </trkpt>
      <trkpt lat="44.10201" lon="3.09295">
        <ele>378</ele>
        <time>2013-07-02T15:19:06Z</time>
      </trkpt>
      <trkpt lat="44.10182" lon="3.09317">
        <ele>381</ele>
        <time>2013-07-02T15:19:10Z</time>
      </trkpt>
      <trkpt lat="44.10172" lon="3.09336">
        <ele>381</ele>
        <time>2013-07-02T15:19:13Z</time>
      </trkpt>
      <trkpt lat="44.10169" lon="3.09344">
        <ele>382</ele>
        <time>2013-07-02T15:19:14Z</time>
      </trkpt>
      <trkpt lat="44.1016" lon="3.09373">
        <ele>386</ele>
        <time>2013-07-02T15:19:18Z</time>
      </trkpt>
      <trkpt lat="44.10156" lon="3.09402">
        <ele>392</ele>
        <time>2013-07-02T15:19:22Z</time>
      </trkpt>
      <trkpt lat="44.10154" lon="3.0943">
        <ele>397</ele>
        <time>2013-07-02T15:19:26Z</time>
      </trkpt>
      <trkpt lat="44.10149" lon="3.09457">
        <ele>385</ele>
        <time>2013-07-02T15:19:30Z</time>
      </trkpt>
      <trkpt lat="44.10144" lon="3.09488">
        <ele>380</ele>
        <time>2013-07-02T15:19:34Z</time>
      </trkpt>
      <trkpt lat="44.10118" lon="3.09554">
        <ele>380</ele>
        <time>2013-07-02T15:19:42Z</time>
      </trkpt>
      <trkpt lat="44.10105" lon="3.09586">
        <ele>381</ele>
        <time>2013-07-02T15:19:46Z</time>
      </trkpt>
      <trkpt lat="44.1009" lon="3.09615">
        <ele>381</ele>
        <time>2013-07-02T15:19:50Z</time>
      </trkpt>
      <trkpt lat="44.10065" lon="3.09671">
        <ele>381</ele>
        <time>2013-07-02T15:19:58Z</time>
      </trkpt>
      <trkpt lat="44.10053" lon="3.097">
        <ele>381</ele>
        <time>2013-07-02T15:20:02Z</time>
      </trkpt>
      <trkpt lat="44.10044" lon="3.09723">
        <ele>381</ele>
        <time>2013-07-02T15:20:05Z</time>
      </trkpt>
      <trkpt lat="44.10041" lon="3.0973">
        <ele>380</ele>
        <time>2013-07-02T15:20:06Z</time>
      </trkpt>
      <trkpt lat="44.1003" lon="3.09758">
        <ele>379</ele>
        <time>2013-07-02T15:20:10Z</time>
      </trkpt>
      <trkpt lat="44.10026" lon="3.09782">
        <ele>381</ele>
        <time>2013-07-02T15:20:14Z</time>
      </trkpt>
      <trkpt lat="44.10027" lon="3.09805">
        <ele>381</ele>
        <time>2013-07-02T15:20:18Z</time>
      </trkpt>
      <trkpt lat="44.10029" lon="3.09833">
        <ele>378</ele>
        <time>2013-07-02T15:20:22Z</time>
      </trkpt>
      <trkpt lat="44.1002" lon="3.09872">
        <ele>388</ele>
        <time>2013-07-02T15:20:26Z</time>
      </trkpt>
      <trkpt lat="44.10012" lon="3.09914">
        <ele>386</ele>
        <time>2013-07-02T15:20:30Z</time>
      </trkpt>
      <trkpt lat="44.10005" lon="3.09948">
        <ele>380</ele>
        <time>2013-07-02T15:20:33Z</time>
      </trkpt>
      <trkpt lat="44.09997" lon="3.09989">
        <ele>380</ele>
        <time>2013-07-02T15:20:37Z</time>
      </trkpt>
      <trkpt lat="44.09994" lon="3.10035">
        <ele>374</ele>
        <time>2013-07-02T15:20:41Z</time>
      </trkpt>
      <trkpt lat="44.09992" lon="3.10079">
        <ele>372</ele>
        <time>2013-07-02T15:20:45Z</time>
      </trkpt>
      <trkpt lat="44.09995" lon="3.10114">
        <ele>370</ele>
        <time>2013-07-02T15:20:49Z</time>
      </trkpt>
      <trkpt lat="44.09998" lon="3.10149">
        <ele>370</ele>
        <time>2013-07-02T15:20:53Z</time>
      </trkpt>
      <trkpt lat="44.10002" lon="3.10187">
        <ele>370</ele>
        <time>2013-07-02T15:20:57Z</time>
      </trkpt>
      <trkpt lat="44.10006" lon="3.10226">
        <ele>370</ele>
        <time>2013-07-02T15:21:01Z</time>
      </trkpt>
      <trkpt lat="44.10012" lon="3.10264">
        <ele>371</ele>
        <time>2013-07-02T15:21:05Z</time>
      </trkpt>
      <trkpt lat="44.10019" lon="3.10293">
        <ele>370</ele>
        <time>2013-07-02T15:21:09Z</time>
      </trkpt>
      <trkpt lat="44.10026" lon="3.10319">
        <ele>370</ele>
        <time>2013-07-02T15:21:13Z</time>
      </trkpt>
      <trkpt lat="44.10036" lon="3.10342">
        <ele>372</ele>
        <time>2013-07-02T15:21:17Z</time>
      </trkpt>
      <trkpt lat="44.10047" lon="3.10386">
        <ele>375</ele>
        <time>2013-07-02T15:21:22Z</time>
      </trkpt>
      <trkpt lat="44.10053" lon="3.10413">
        <ele>377</ele>
        <time>2013-07-02T15:21:26Z</time>
      </trkpt>
      <trkpt lat="44.10057" lon="3.10438">
        <ele>376</ele>
        <time>2013-07-02T15:21:30Z</time>
      </trkpt>
      <trkpt lat="44.10057" lon="3.10462">
        <ele>376</ele>
        <time>2013-07-02T15:21:34Z</time>
      </trkpt>
      <trkpt lat="44.10057" lon="3.10491">
        <ele>374</ele>
        <time>2013-07-02T15:21:38Z</time>
      </trkpt>
      <trkpt lat="44.10059" lon="3.10521">
        <ele>374</ele>
        <time>2013-07-02T15:21:42Z</time>
      </trkpt>
      <trkpt lat="44.10057" lon="3.10546">
        <ele>375</ele>
        <time>2013-07-02T15:21:46Z</time>
      </trkpt>
      <trkpt lat="44.10056" lon="3.10567">
        <ele>376</ele>
        <time>2013-07-02T15:21:50Z</time>
      </trkpt>
      <trkpt lat="44.10058" lon="3.10582">
        <ele>376</ele>
        <time>2013-07-02T15:21:54Z</time>
      </trkpt>
      <trkpt lat="44.10059" lon="3.10602">
        <ele>377</ele>
        <time>2013-07-02T15:21:58Z</time>
      </trkpt>
      <trkpt lat="44.10057" lon="3.10629">
        <ele>379</ele>
        <time>2013-07-02T15:22:02Z</time>
      </trkpt>
      <trkpt lat="44.10056" lon="3.10656">
        <ele>379</ele>
        <time>2013-07-02T15:22:06Z</time>
      </trkpt>
      <trkpt lat="44.10051" lon="3.10688">
        <ele>378</ele>
        <time>2013-07-02T15:22:10Z</time>
      </trkpt>
      <trkpt lat="44.10049" lon="3.10718">
        <ele>378</ele>
        <time>2013-07-02T15:22:14Z</time>
      </trkpt>
      <trkpt lat="44.10048" lon="3.10749">
        <ele>380</ele>
        <time>2013-07-02T15:22:18Z</time>
      </trkpt>
      <trkpt lat="44.10044" lon="3.10779">
        <ele>376</ele>
        <time>2013-07-02T15:22:22Z</time>
      </trkpt>
      <trkpt lat="44.10043" lon="3.10787">
        <ele>376</ele>
        <time>2013-07-02T15:22:23Z</time>
      </trkpt>
      <trkpt lat="44.10042" lon="3.10808">
        <ele>377</ele>
        <time>2013-07-02T15:22:26Z</time>
      </trkpt>
      <trkpt lat="44.10041" lon="3.10836">
        <ele>375</ele>
        <time>2013-07-02T15:22:30Z</time>
      </trkpt>
      <trkpt lat="44.1004" lon="3.10864">
        <ele>376</ele>
        <time>2013-07-02T15:22:34Z</time>
      </trkpt>
      <trkpt lat="44.10037" lon="3.10891">
        <ele>378</ele>
        <time>2013-07-02T15:22:38Z</time>
      </trkpt>
      <trkpt lat="44.10034" lon="3.1092">
        <ele>377</ele>
        <time>2013-07-02T15:22:42Z</time>
      </trkpt>
      <trkpt lat="44.10033" lon="3.10951">
        <ele>379</ele>
        <time>2013-07-02T15:22:46Z</time>
      </trkpt>
      <trkpt lat="44.10032" lon="3.10982">
        <ele>378</ele>
        <time>2013-07-02T15:22:50Z</time>
      </trkpt>
      <trkpt lat="44.10034" lon="3.11011">
        <ele>380</ele>
        <time>2013-07-02T15:22:54Z</time>
      </trkpt>
      <trkpt lat="44.10032" lon="3.11041">
        <ele>381</ele>
        <time>2013-07-02T15:22:58Z</time>
      </trkpt>
      <trkpt lat="44.1003" lon="3.11073">
        <ele>377</ele>
        <time>2013-07-02T15:23:02Z</time>
      </trkpt>
      <trkpt lat="44.10027" lon="3.11106">
        <ele>377</ele>
        <time>2013-07-02T15:23:06Z</time>
      </trkpt>
      <trkpt lat="44.10022" lon="3.11137">
        <ele>375</ele>
        <time>2013-07-02T15:23:10Z</time>
      </trkpt>
      <trkpt lat="44.10015" lon="3.11167">
        <ele>374</ele>
        <time>2013-07-02T15:23:14Z</time>
      </trkpt>
      <trkpt lat="44.10009" lon="3.11197">
        <ele>377</ele>
        <time>2013-07-02T15:23:18Z</time>
      </trkpt>
      <trkpt lat="44.10005" lon="3.1123">
        <ele>375</ele>
        <time>2013-07-02T15:23:22Z</time>
      </trkpt>
      <trkpt lat="44.10007" lon="3.11263">
        <ele>376</ele>
        <time>2013-07-02T15:23:26Z</time>
      </trkpt>
      <trkpt lat="44.1001" lon="3.11294">
        <ele>376</ele>
        <time>2013-07-02T15:23:30Z</time>
      </trkpt>
      <trkpt lat="44.10017" lon="3.11324">
        <ele>376</ele>
        <time>2013-07-02T15:23:34Z</time>
      </trkpt>
      <trkpt lat="44.1002" lon="3.11351">
        <ele>376</ele>
        <time>2013-07-02T15:23:38Z</time>
      </trkpt>
      <trkpt lat="44.10025" lon="3.11377">
        <ele>377</ele>
        <time>2013-07-02T15:23:42Z</time>
      </trkpt>
      <trkpt lat="44.10037" lon="3.11405">
        <ele>379</ele>
        <time>2013-07-02T15:23:46Z</time>
      </trkpt>
      <trkpt lat="44.10051" lon="3.11425">
        <ele>378</ele>
        <time>2013-07-02T15:23:50Z</time>
      </trkpt>
      <trkpt lat="44.10067" lon="3.11444">
        <ele>380</ele>
        <time>2013-07-02T15:23:54Z</time>
      </trkpt>
      <trkpt lat="44.10083" lon="3.11462">
        <ele>380</ele>
        <time>2013-07-02T15:23:58Z</time>
      </trkpt>
      <trkpt lat="44.10095" lon="3.1148">
        <ele>380</ele>
        <time>2013-07-02T15:24:02Z</time>
      </trkpt>
      <trkpt lat="44.10106" lon="3.11497">
        <ele>380</ele>
        <time>2013-07-02T15:24:06Z</time>
      </trkpt>
      <trkpt lat="44.10116" lon="3.11517">
        <ele>383</ele>
        <time>2013-07-02T15:24:10Z</time>
      </trkpt>
      <trkpt lat="44.10141" lon="3.11572">
        <ele>383</ele>
        <time>2013-07-02T15:24:18Z</time>
      </trkpt>
      <trkpt lat="44.10149" lon="3.11608">
        <ele>385</ele>
        <time>2013-07-02T15:24:22Z</time>
      </trkpt>
      <trkpt lat="44.10149" lon="3.11643">
        <ele>385</ele>
        <time>2013-07-02T15:24:26Z</time>
      </trkpt>
      <trkpt lat="44.10145" lon="3.1167">
        <ele>386</ele>
        <time>2013-07-02T15:24:30Z</time>
      </trkpt>
      <trkpt lat="44.10142" lon="3.11695">
        <ele>386</ele>
        <time>2013-07-02T15:24:34Z</time>
      </trkpt>
      <trkpt lat="44.10138" lon="3.11722">
        <ele>384</ele>
        <time>2013-07-02T15:24:38Z</time>
      </trkpt>
      <trkpt lat="44.10136" lon="3.11746">
        <ele>384</ele>
        <time>2013-07-02T15:24:42Z</time>
      </trkpt>
      <trkpt lat="44.10133" lon="3.11777">
        <ele>383</ele>
        <time>2013-07-02T15:24:46Z</time>
      </trkpt>
      <trkpt lat="44.1013" lon="3.1181">
        <ele>383</ele>
        <time>2013-07-02T15:24:50Z</time>
      </trkpt>
      <trkpt lat="44.1013" lon="3.11838">
        <ele>383</ele>
        <time>2013-07-02T15:24:54Z</time>
      </trkpt>
      <trkpt lat="44.10125" lon="3.11905">
        <ele>382</ele>
        <time>2013-07-02T15:25:02Z</time>
      </trkpt>
      <trkpt lat="44.10123" lon="3.11937">
        <ele>383</ele>
        <time>2013-07-02T15:25:06Z</time>
      </trkpt>
      <trkpt lat="44.10122" lon="3.11966">
        <ele>382</ele>
        <time>2013-07-02T15:25:10Z</time>
      </trkpt>
      <trkpt lat="44.10121" lon="3.11995">
        <ele>383</ele>
        <time>2013-07-02T15:25:14Z</time>
      </trkpt>
      <trkpt lat="44.1012" lon="3.12024">
        <ele>383</ele>
        <time>2013-07-02T15:25:18Z</time>
      </trkpt>
      <trkpt lat="44.10119" lon="3.12053">
        <ele>383</ele>
        <time>2013-07-02T15:25:22Z</time>
      </trkpt>
      <trkpt lat="44.10119" lon="3.12083">
        <ele>381</ele>
        <time>2013-07-02T15:25:26Z</time>
      </trkpt>
      <trkpt lat="44.10122" lon="3.1211">
        <ele>381</ele>
        <time>2013-07-02T15:25:30Z</time>
      </trkpt>
      <trkpt lat="44.10121" lon="3.12139">
        <ele>381</ele>
        <time>2013-07-02T15:25:34Z</time>
      </trkpt>
      <trkpt lat="44.10121" lon="3.12168">
        <ele>378</ele>
        <time>2013-07-02T15:25:38Z</time>
      </trkpt>
      <trkpt lat="44.10121" lon="3.12202">
        <ele>376</ele>
        <time>2013-07-02T15:25:42Z</time>
      </trkpt>
      <trkpt lat="44.10118" lon="3.12231">
        <ele>373</ele>
        <time>2013-07-02T15:25:46Z</time>
      </trkpt>
      <trkpt lat="44.10118" lon="3.1226">
        <ele>376</ele>
        <time>2013-07-02T15:25:50Z</time>
      </trkpt>
      <trkpt lat="44.10119" lon="3.12291">
        <ele>379</ele>
        <time>2013-07-02T15:25:54Z</time>
      </trkpt>
      <trkpt lat="44.10119" lon="3.12324">
        <ele>377</ele>
        <time>2013-07-02T15:25:58Z</time>
      </trkpt>
      <trkpt lat="44.10122" lon="3.12351">
        <ele>380</ele>
        <time>2013-07-02T15:26:02Z</time>
      </trkpt>
      <trkpt lat="44.1013" lon="3.12376">
        <ele>381</ele>
        <time>2013-07-02T15:26:06Z</time>
      </trkpt>
      <trkpt lat="44.10136" lon="3.12411">
        <ele>376</ele>
        <time>2013-07-02T15:26:10Z</time>
      </trkpt>
      <trkpt lat="44.10137" lon="3.12442">
        <ele>376</ele>
        <time>2013-07-02T15:26:14Z</time>
      </trkpt>
      <trkpt lat="44.10142" lon="3.12472">
        <ele>378</ele>
        <time>2013-07-02T15:26:18Z</time>
      </trkpt>
      <trkpt lat="44.10149" lon="3.125">
        <ele>378</ele>
        <time>2013-07-02T15:26:22Z</time>
      </trkpt>
      <trkpt lat="44.10153" lon="3.1253">
        <ele>380</ele>
        <time>2013-07-02T15:26:26Z</time>
      </trkpt>
      <trkpt lat="44.10158" lon="3.12565">
        <ele>379</ele>
        <time>2013-07-02T15:26:30Z</time>
      </trkpt>
      <trkpt lat="44.10161" lon="3.12599">
        <ele>378</ele>
        <time>2013-07-02T15:26:34Z</time>
      </trkpt>
      <trkpt lat="44.10166" lon="3.12633">
        <ele>380</ele>
        <time>2013-07-02T15:26:38Z</time>
      </trkpt>
      <trkpt lat="44.10172" lon="3.12665">
        <ele>382</ele>
        <time>2013-07-02T15:26:42Z</time>
      </trkpt>
      <trkpt lat="44.10177" lon="3.12697">
        <ele>382</ele>
        <time>2013-07-02T15:26:46Z</time>
      </trkpt>
      <trkpt lat="44.1018" lon="3.12731">
        <ele>380</ele>
        <time>2013-07-02T15:26:50Z</time>
      </trkpt>
      <trkpt lat="44.10182" lon="3.1276">
        <ele>384</ele>
        <time>2013-07-02T15:26:54Z</time>
      </trkpt>
      <trkpt lat="44.10186" lon="3.12791">
        <ele>387</ele>
        <time>2013-07-02T15:26:58Z</time>
      </trkpt>
      <trkpt lat="44.10195" lon="3.12822">
        <ele>386</ele>
        <time>2013-07-02T15:27:02Z</time>
      </trkpt>
      <trkpt lat="44.10207" lon="3.12855">
        <ele>388</ele>
        <time>2013-07-02T15:27:06Z</time>
      </trkpt>
      <trkpt lat="44.10219" lon="3.12888">
        <ele>388</ele>
        <time>2013-07-02T15:27:10Z</time>
      </trkpt>
      <trkpt lat="44.10234" lon="3.12912">
        <ele>387</ele>
        <time>2013-07-02T15:27:14Z</time>
      </trkpt>
      <trkpt lat="44.10239" lon="3.12917">
        <ele>387</ele>
        <time>2013-07-02T15:27:15Z</time>
      </trkpt>
      <trkpt lat="44.10254" lon="3.12933">
        <ele>388</ele>
        <time>2013-07-02T15:27:18Z</time>
      </trkpt>
      <trkpt lat="44.10272" lon="3.12944">
        <ele>385</ele>
        <time>2013-07-02T15:27:22Z</time>
      </trkpt>
      <trkpt lat="44.10291" lon="3.12959">
        <ele>387</ele>
        <time>2013-07-02T15:27:26Z</time>
      </trkpt>
      <trkpt lat="44.10311" lon="3.12966">
        <ele>390</ele>
        <time>2013-07-02T15:27:30Z</time>
      </trkpt>
      <trkpt lat="44.10332" lon="3.12967">
        <ele>392</ele>
        <time>2013-07-02T15:27:34Z</time>
      </trkpt>
      <trkpt lat="44.10355" lon="3.12966">
        <ele>394</ele>
        <time>2013-07-02T15:27:38Z</time>
      </trkpt>
      <trkpt lat="44.10378" lon="3.12959">
        <ele>391</ele>
        <time>2013-07-02T15:27:42Z</time>
      </trkpt>
      <trkpt lat="44.10397" lon="3.12949">
        <ele>391</ele>
        <time>2013-07-02T15:27:46Z</time>
      </trkpt>
      <trkpt lat="44.10418" lon="3.12937">
        <ele>396</ele>
        <time>2013-07-02T15:27:50Z</time>
      </trkpt>
      <trkpt lat="44.10437" lon="3.12925">
        <ele>394</ele>
        <time>2013-07-02T15:27:54Z</time>
      </trkpt>
      <trkpt lat="44.10454" lon="3.12914">
        <ele>393</ele>
        <time>2013-07-02T15:27:58Z</time>
      </trkpt>
      <trkpt lat="44.10471" lon="3.12903">
        <ele>396</ele>
        <time>2013-07-02T15:28:02Z</time>
      </trkpt>
      <trkpt lat="44.1049" lon="3.12893">
        <ele>397</ele>
        <time>2013-07-02T15:28:06Z</time>
      </trkpt>
      <trkpt lat="44.1051" lon="3.12881">
        <ele>397</ele>
        <time>2013-07-02T15:28:10Z</time>
      </trkpt>
      <trkpt lat="44.1053" lon="3.1287">
        <ele>397</ele>
        <time>2013-07-02T15:28:14Z</time>
      </trkpt>
      <trkpt lat="44.10552" lon="3.12864">
        <ele>393</ele>
        <time>2013-07-02T15:28:18Z</time>
      </trkpt>
      <trkpt lat="44.10573" lon="3.12858">
        <ele>391</ele>
        <time>2013-07-02T15:28:22Z</time>
      </trkpt>
      <trkpt lat="44.10594" lon="3.12855">
        <ele>392</ele>
        <time>2013-07-02T15:28:26Z</time>
      </trkpt>
      <trkpt lat="44.10615" lon="3.12852">
        <ele>392</ele>
        <time>2013-07-02T15:28:30Z</time>
      </trkpt>
      <trkpt lat="44.10637" lon="3.1285">
        <ele>393</ele>
        <time>2013-07-02T15:28:34Z</time>
      </trkpt>
      <trkpt lat="44.10658" lon="3.12848">
        <ele>392</ele>
        <time>2013-07-02T15:28:38Z</time>
      </trkpt>
      <trkpt lat="44.1068" lon="3.12847">
        <ele>392</ele>
        <time>2013-07-02T15:28:42Z</time>
      </trkpt>
      <trkpt lat="44.10704" lon="3.12845">
        <ele>391</ele>
        <time>2013-07-02T15:28:46Z</time>
      </trkpt>
      <trkpt lat="44.10726" lon="3.12848">
        <ele>389</ele>
        <time>2013-07-02T15:28:50Z</time>
      </trkpt>
      <trkpt lat="44.10749" lon="3.12852">
        <ele>386</ele>
        <time>2013-07-02T15:28:54Z</time>
      </trkpt>
      <trkpt lat="44.10772" lon="3.12854">
        <ele>386</ele>
        <time>2013-07-02T15:28:58Z</time>
      </trkpt>
      <trkpt lat="44.10794" lon="3.12859">
        <ele>387</ele>
        <time>2013-07-02T15:29:02Z</time>
      </trkpt>
      <trkpt lat="44.10815" lon="3.12864">
        <ele>387</ele>
        <time>2013-07-02T15:29:06Z</time>
      </trkpt>
      <trkpt lat="44.10833" lon="3.12879">
        <ele>386</ele>
        <time>2013-07-02T15:29:10Z</time>
      </trkpt>
      <trkpt lat="44.10851" lon="3.12903">
        <ele>389</ele>
        <time>2013-07-02T15:29:14Z</time>
      </trkpt>
      <trkpt lat="44.1087" lon="3.12933">
        <ele>387</ele>
        <time>2013-07-02T15:29:18Z</time>
      </trkpt>
      <trkpt lat="44.10881" lon="3.12954">
        <ele>386</ele>
        <time>2013-07-02T15:29:21Z</time>
      </trkpt>
      <trkpt lat="44.10885" lon="3.12961">
        <ele>389</ele>
        <time>2013-07-02T15:29:23Z</time>
      </trkpt>
      <trkpt lat="44.10912" lon="3.13023">
        <ele>389</ele>
        <time>2013-07-02T15:29:30Z</time>
      </trkpt>
      <trkpt lat="44.10922" lon="3.13059">
        <ele>390</ele>
        <time>2013-07-02T15:29:34Z</time>
      </trkpt>
      <trkpt lat="44.10931" lon="3.13093">
        <ele>393</ele>
        <time>2013-07-02T15:29:38Z</time>
      </trkpt>
      <trkpt lat="44.10939" lon="3.13135">
        <ele>393</ele>
        <time>2013-07-02T15:29:42Z</time>
      </trkpt>
      <trkpt lat="44.10945" lon="3.13178">
        <ele>394</ele>
        <time>2013-07-02T15:29:46Z</time>
      </trkpt>
      <trkpt lat="44.1095" lon="3.13216">
        <ele>394</ele>
        <time>2013-07-02T15:29:50Z</time>
      </trkpt>
      <trkpt lat="44.10956" lon="3.13257">
        <ele>395</ele>
        <time>2013-07-02T15:29:54Z</time>
      </trkpt>
      <trkpt lat="44.10961" lon="3.13294">
        <ele>395</ele>
        <time>2013-07-02T15:29:58Z</time>
      </trkpt>
      <trkpt lat="44.10962" lon="3.13332">
        <ele>396</ele>
        <time>2013-07-02T15:30:02Z</time>
      </trkpt>
      <trkpt lat="44.1096" lon="3.1337">
        <ele>400</ele>
        <time>2013-07-02T15:30:06Z</time>
      </trkpt>
      <trkpt lat="44.10954" lon="3.134">
        <ele>403</ele>
        <time>2013-07-02T15:30:10Z</time>
      </trkpt>
      <trkpt lat="44.10949" lon="3.13428">
        <ele>403</ele>
        <time>2013-07-02T15:30:14Z</time>
      </trkpt>
      <trkpt lat="44.10934" lon="3.13485">
        <ele>400</ele>
        <time>2013-07-02T15:30:22Z</time>
      </trkpt>
      <trkpt lat="44.10923" lon="3.13514">
        <ele>398</ele>
        <time>2013-07-02T15:30:26Z</time>
      </trkpt>
      <trkpt lat="44.10913" lon="3.13542">
        <ele>394</ele>
        <time>2013-07-02T15:30:30Z</time>
      </trkpt>
      <trkpt lat="44.10896" lon="3.13574">
        <ele>392</ele>
        <time>2013-07-02T15:30:34Z</time>
      </trkpt>
      <trkpt lat="44.1088" lon="3.13601">
        <ele>390</ele>
        <time>2013-07-02T15:30:38Z</time>
      </trkpt>
      <trkpt lat="44.10862" lon="3.13629">
        <ele>388</ele>
        <time>2013-07-02T15:30:42Z</time>
      </trkpt>
      <trkpt lat="44.10845" lon="3.13656">
        <ele>387</ele>
        <time>2013-07-02T15:30:46Z</time>
      </trkpt>
      <trkpt lat="44.1083" lon="3.1368">
        <ele>387</ele>
        <time>2013-07-02T15:30:50Z</time>
      </trkpt>
      <trkpt lat="44.10815" lon="3.13709">
        <ele>386</ele>
        <time>2013-07-02T15:30:54Z</time>
      </trkpt>
      <trkpt lat="44.10804" lon="3.1374">
        <ele>384</ele>
        <time>2013-07-02T15:30:58Z</time>
      </trkpt>
      <trkpt lat="44.10801" lon="3.13768">
        <ele>384</ele>
        <time>2013-07-02T15:31:02Z</time>
      </trkpt>
      <trkpt lat="44.10806" lon="3.13786">
        <ele>384</ele>
        <time>2013-07-02T15:31:06Z</time>
      </trkpt>
      <trkpt lat="44.1082" lon="3.13803">
        <ele>382</ele>
        <time>2013-07-02T15:31:10Z</time>
      </trkpt>
      <trkpt lat="44.10839" lon="3.13812">
        <ele>381</ele>
        <time>2013-07-02T15:31:14Z</time>
      </trkpt>
      <trkpt lat="44.10854" lon="3.13815">
        <ele>381</ele>
        <time>2013-07-02T15:31:18Z</time>
      </trkpt>
      <trkpt lat="44.10872" lon="3.13819">
        <ele>383</ele>
        <time>2013-07-02T15:31:23Z</time>
      </trkpt>
      <trkpt lat="44.10891" lon="3.13832">
        <ele>383</ele>
        <time>2013-07-02T15:31:26Z</time>
      </trkpt>
      <trkpt lat="44.10904" lon="3.13853">
        <ele>384</ele>
        <time>2013-07-02T15:31:30Z</time>
      </trkpt>
      <trkpt lat="44.10912" lon="3.13882">
        <ele>385</ele>
        <time>2013-07-02T15:31:34Z</time>
      </trkpt>
      <trkpt lat="44.10917" lon="3.13917">
        <ele>388</ele>
        <time>2013-07-02T15:31:38Z</time>
      </trkpt>
      <trkpt lat="44.1092" lon="3.13949">
        <ele>391</ele>
        <time>2013-07-02T15:31:42Z</time>
      </trkpt>
      <trkpt lat="44.10926" lon="3.13983">
        <ele>392</ele>
        <time>2013-07-02T15:31:46Z</time>
      </trkpt>
      <trkpt lat="44.10936" lon="3.14017">
        <ele>395</ele>
        <time>2013-07-02T15:31:50Z</time>
      </trkpt>
      <trkpt lat="44.10935" lon="3.14062">
        <ele>399</ele>
        <time>2013-07-02T15:31:54Z</time>
      </trkpt>
      <trkpt lat="44.10924" lon="3.14099">
        <ele>400</ele>
        <time>2013-07-02T15:31:58Z</time>
      </trkpt>
      <trkpt lat="44.10906" lon="3.14132">
        <ele>401</ele>
        <time>2013-07-02T15:32:02Z</time>
      </trkpt>
      <trkpt lat="44.10891" lon="3.14161">
        <ele>401</ele>
        <time>2013-07-02T15:32:06Z</time>
      </trkpt>
      <trkpt lat="44.10872" lon="3.14195">
        <ele>398</ele>
        <time>2013-07-02T15:32:10Z</time>
      </trkpt>
      <trkpt lat="44.10853" lon="3.14227">
        <ele>395</ele>
        <time>2013-07-02T15:32:14Z</time>
      </trkpt>
      <trkpt lat="44.10833" lon="3.14262">
        <ele>394</ele>
        <time>2013-07-02T15:32:18Z</time>
      </trkpt>
      <trkpt lat="44.10817" lon="3.14292">
        <ele>395</ele>
        <time>2013-07-02T15:32:22Z</time>
      </trkpt>
      <trkpt lat="44.10801" lon="3.14325">
        <ele>394</ele>
        <time>2013-07-02T15:32:26Z</time>
      </trkpt>
      <trkpt lat="44.10786" lon="3.14355">
        <ele>394</ele>
        <time>2013-07-02T15:32:30Z</time>
      </trkpt>
      <trkpt lat="44.10772" lon="3.14384">
        <ele>402</ele>
        <time>2013-07-02T15:32:34Z</time>
      </trkpt>
      <trkpt lat="44.10756" lon="3.14414">
        <ele>398</ele>
        <time>2013-07-02T15:32:38Z</time>
      </trkpt>
      <trkpt lat="44.10738" lon="3.14447">
        <ele>398</ele>
        <time>2013-07-02T15:32:42Z</time>
      </trkpt>
      <trkpt lat="44.10725" lon="3.14475">
        <ele>399</ele>
        <time>2013-07-02T15:32:46Z</time>
      </trkpt>
      <trkpt lat="44.10712" lon="3.14502">
        <ele>397</ele>
        <time>2013-07-02T15:32:50Z</time>
      </trkpt>
      <trkpt lat="44.10699" lon="3.14526">
        <ele>400</ele>
        <time>2013-07-02T15:32:54Z</time>
      </trkpt>
      <trkpt lat="44.10683" lon="3.14555">
        <ele>398</ele>
        <time>2013-07-02T15:32:58Z</time>
      </trkpt>
      <trkpt lat="44.10672" lon="3.14583">
        <ele>402</ele>
        <time>2013-07-02T15:33:02Z</time>
      </trkpt>
      <trkpt lat="44.10663" lon="3.14612">
        <ele>401</ele>
        <time>2013-07-02T15:33:06Z</time>
      </trkpt>
      <trkpt lat="44.10653" lon="3.14645">
        <ele>397</ele>
        <time>2013-07-02T15:33:10Z</time>
      </trkpt>
      <trkpt lat="44.10645" lon="3.14676">
        <ele>400</ele>
        <time>2013-07-02T15:33:14Z</time>
      </trkpt>
      <trkpt lat="44.10638" lon="3.14707">
        <ele>401</ele>
        <time>2013-07-02T15:33:18Z</time>
      </trkpt>
      <trkpt lat="44.1063" lon="3.14739">
        <ele>398</ele>
        <time>2013-07-02T15:33:22Z</time>
      </trkpt>
      <trkpt lat="44.10621" lon="3.1477">
        <ele>396</ele>
        <time>2013-07-02T15:33:26Z</time>
      </trkpt>
      <trkpt lat="44.10613" lon="3.148">
        <ele>394</ele>
        <time>2013-07-02T15:33:30Z</time>
      </trkpt>
      <trkpt lat="44.10605" lon="3.1483">
        <ele>392</ele>
        <time>2013-07-02T15:33:34Z</time>
      </trkpt>
      <trkpt lat="44.106" lon="3.14861">
        <ele>390</ele>
        <time>2013-07-02T15:33:38Z</time>
      </trkpt>
      <trkpt lat="44.10596" lon="3.1489">
        <ele>392</ele>
        <time>2013-07-02T15:33:42Z</time>
      </trkpt>
      <trkpt lat="44.10595" lon="3.14918">
        <ele>394</ele>
        <time>2013-07-02T15:33:46Z</time>
      </trkpt>
      <trkpt lat="44.10595" lon="3.14946">
        <ele>393</ele>
        <time>2013-07-02T15:33:50Z</time>
      </trkpt>
      <trkpt lat="44.10594" lon="3.14973">
        <ele>396</ele>
        <time>2013-07-02T15:33:54Z</time>
      </trkpt>
      <trkpt lat="44.10593" lon="3.15005">
        <ele>390</ele>
        <time>2013-07-02T15:33:58Z</time>
      </trkpt>
      <trkpt lat="44.10595" lon="3.15035">
        <ele>390</ele>
        <time>2013-07-02T15:34:02Z</time>
      </trkpt>
      <trkpt lat="44.10601" lon="3.15069">
        <ele>392</ele>
        <time>2013-07-02T15:34:06Z</time>
      </trkpt>
      <trkpt lat="44.10608" lon="3.15104">
        <ele>394</ele>
        <time>2013-07-02T15:34:10Z</time>
      </trkpt>
      <trkpt lat="44.10615" lon="3.15133">
        <ele>393</ele>
        <time>2013-07-02T15:34:14Z</time>
      </trkpt>
      <trkpt lat="44.10624" lon="3.15162">
        <ele>396</ele>
        <time>2013-07-02T15:34:18Z</time>
      </trkpt>
      <trkpt lat="44.10634" lon="3.1519">
        <ele>397</ele>
        <time>2013-07-02T15:34:22Z</time>
      </trkpt>
      <trkpt lat="44.10643" lon="3.15216">
        <ele>399</ele>
        <time>2013-07-02T15:34:26Z</time>
      </trkpt>
      <trkpt lat="44.10653" lon="3.15243">
        <ele>400</ele>
        <time>2013-07-02T15:34:30Z</time>
      </trkpt>
      <trkpt lat="44.10662" lon="3.15268">
        <ele>399</ele>
        <time>2013-07-02T15:34:34Z</time>
      </trkpt>
      <trkpt lat="44.10671" lon="3.1529">
        <ele>399</ele>
        <time>2013-07-02T15:34:38Z</time>
      </trkpt>
      <trkpt lat="44.10681" lon="3.15316">
        <ele>400</ele>
        <time>2013-07-02T15:34:42Z</time>
      </trkpt>
      <trkpt lat="44.10689" lon="3.15341">
        <ele>400</ele>
        <time>2013-07-02T15:34:46Z</time>
      </trkpt>
      <trkpt lat="44.10698" lon="3.15364">
        <ele>401</ele>
        <time>2013-07-02T15:34:50Z</time>
      </trkpt>
      <trkpt lat="44.10709" lon="3.1539">
        <ele>401</ele>
        <time>2013-07-02T15:34:54Z</time>
      </trkpt>
      <trkpt lat="44.10719" lon="3.15414">
        <ele>402</ele>
        <time>2013-07-02T15:34:58Z</time>
      </trkpt>
      <trkpt lat="44.1073" lon="3.15436">
        <ele>402</ele>
        <time>2013-07-02T15:35:02Z</time>
      </trkpt>
      <trkpt lat="44.10742" lon="3.1546">
        <ele>401</ele>
        <time>2013-07-02T15:35:06Z</time>
      </trkpt>
      <trkpt lat="44.10756" lon="3.15486">
        <ele>401</ele>
        <time>2013-07-02T15:35:10Z</time>
      </trkpt>
      <trkpt lat="44.10769" lon="3.15511">
        <ele>402</ele>
        <time>2013-07-02T15:35:14Z</time>
      </trkpt>
      <trkpt lat="44.10782" lon="3.15536">
        <ele>402</ele>
        <time>2013-07-02T15:35:18Z</time>
      </trkpt>
      <trkpt lat="44.10796" lon="3.15561">
        <ele>401</ele>
        <time>2013-07-02T15:35:22Z</time>
      </trkpt>
      <trkpt lat="44.10807" lon="3.15586">
        <ele>402</ele>
        <time>2013-07-02T15:35:26Z</time>
      </trkpt>
      <trkpt lat="44.10817" lon="3.15616">
        <ele>404</ele>
        <time>2013-07-02T15:35:30Z</time>
      </trkpt>
      <trkpt lat="44.1082" lon="3.15643">
        <ele>402</ele>
        <time>2013-07-02T15:35:34Z</time>
      </trkpt>
      <trkpt lat="44.10823" lon="3.15672">
        <ele>403</ele>
        <time>2013-07-02T15:35:38Z</time>
      </trkpt>
      <trkpt lat="44.10827" lon="3.15709">
        <ele>406</ele>
        <time>2013-07-02T15:35:42Z</time>
      </trkpt>
      <trkpt lat="44.10831" lon="3.15746">
        <ele>406</ele>
        <time>2013-07-02T15:35:46Z</time>
      </trkpt>
      <trkpt lat="44.10829" lon="3.15776">
        <ele>408</ele>
        <time>2013-07-02T15:35:50Z</time>
      </trkpt>
      <trkpt lat="44.10827" lon="3.15813">
        <ele>409</ele>
        <time>2013-07-02T15:35:54Z</time>
      </trkpt>
      <trkpt lat="44.1082" lon="3.1585">
        <ele>411</ele>
        <time>2013-07-02T15:35:58Z</time>
      </trkpt>
      <trkpt lat="44.10811" lon="3.15884">
        <ele>410</ele>
        <time>2013-07-02T15:36:02Z</time>
      </trkpt>
      <trkpt lat="44.10803" lon="3.15914">
        <ele>409</ele>
        <time>2013-07-02T15:36:06Z</time>
      </trkpt>
      <trkpt lat="44.10801" lon="3.1595">
        <ele>406</ele>
        <time>2013-07-02T15:36:10Z</time>
      </trkpt>
      <trkpt lat="44.10806" lon="3.15981">
        <ele>404</ele>
        <time>2013-07-02T15:36:14Z</time>
      </trkpt>
      <trkpt lat="44.10814" lon="3.1601">
        <ele>404</ele>
        <time>2013-07-02T15:36:18Z</time>
      </trkpt>
      <trkpt lat="44.10826" lon="3.1604">
        <ele>403</ele>
        <time>2013-07-02T15:36:22Z</time>
      </trkpt>
      <trkpt lat="44.10838" lon="3.16069">
        <ele>402</ele>
        <time>2013-07-02T15:36:26Z</time>
      </trkpt>
      <trkpt lat="44.10841" lon="3.16075">
        <ele>402</ele>
        <time>2013-07-02T15:36:27Z</time>
      </trkpt>
      <trkpt lat="44.1085" lon="3.16092">
        <ele>402</ele>
        <time>2013-07-02T15:36:30Z</time>
      </trkpt>
      <trkpt lat="44.10865" lon="3.16123">
        <ele>404</ele>
        <time>2013-07-02T15:36:34Z</time>
      </trkpt>
      <trkpt lat="44.10885" lon="3.16153">
        <ele>405</ele>
        <time>2013-07-02T15:36:38Z</time>
      </trkpt>
      <trkpt lat="44.10905" lon="3.16179">
        <ele>406</ele>
        <time>2013-07-02T15:36:42Z</time>
      </trkpt>
      <trkpt lat="44.10922" lon="3.16197">
        <ele>408</ele>
        <time>2013-07-02T15:36:46Z</time>
      </trkpt>
      <trkpt lat="44.10938" lon="3.16217">
        <ele>408</ele>
        <time>2013-07-02T15:36:50Z</time>
      </trkpt>
      <trkpt lat="44.10951" lon="3.16241">
        <ele>406</ele>
        <time>2013-07-02T15:36:54Z</time>
      </trkpt>
      <trkpt lat="44.10967" lon="3.16275">
        <ele>407</ele>
        <time>2013-07-02T15:36:58Z</time>
      </trkpt>
      <trkpt lat="44.10985" lon="3.16314">
        <ele>407</ele>
        <time>2013-07-02T15:37:02Z</time>
      </trkpt>
      <trkpt lat="44.11003" lon="3.1635">
        <ele>407</ele>
        <time>2013-07-02T15:37:06Z</time>
      </trkpt>
      <trkpt lat="44.11018" lon="3.16387">
        <ele>411</ele>
        <time>2013-07-02T15:37:10Z</time>
      </trkpt>
      <trkpt lat="44.11034" lon="3.16425">
        <ele>409</ele>
        <time>2013-07-02T15:37:14Z</time>
      </trkpt>
      <trkpt lat="44.11051" lon="3.16458">
        <ele>409</ele>
        <time>2013-07-02T15:37:18Z</time>
      </trkpt>
      <trkpt lat="44.11063" lon="3.16482">
        <ele>407</ele>
        <time>2013-07-02T15:37:22Z</time>
      </trkpt>
      <trkpt lat="44.11081" lon="3.16513">
        <ele>405</ele>
        <time>2013-07-02T15:37:26Z</time>
      </trkpt>
      <trkpt lat="44.11102" lon="3.16537">
        <ele>403</ele>
        <time>2013-07-02T15:37:30Z</time>
      </trkpt>
      <trkpt lat="44.11124" lon="3.16563">
        <ele>401</ele>
        <time>2013-07-02T15:37:34Z</time>
      </trkpt>
      <trkpt lat="44.1114" lon="3.16585">
        <ele>400</ele>
        <time>2013-07-02T15:37:38Z</time>
      </trkpt>
      <trkpt lat="44.11155" lon="3.16608">
        <ele>398</ele>
        <time>2013-07-02T15:37:42Z</time>
      </trkpt>
      <trkpt lat="44.11174" lon="3.16634">
        <ele>396</ele>
        <time>2013-07-02T15:37:46Z</time>
      </trkpt>
      <trkpt lat="44.11198" lon="3.16657">
        <ele>394</ele>
        <time>2013-07-02T15:37:50Z</time>
      </trkpt>
      <trkpt lat="44.11221" lon="3.16673">
        <ele>392</ele>
        <time>2013-07-02T15:37:54Z</time>
      </trkpt>
      <trkpt lat="44.11242" lon="3.16687">
        <ele>391</ele>
        <time>2013-07-02T15:37:58Z</time>
      </trkpt>
      <trkpt lat="44.11263" lon="3.16699">
        <ele>390</ele>
        <time>2013-07-02T15:38:02Z</time>
      </trkpt>
      <trkpt lat="44.11284" lon="3.16708">
        <ele>388</ele>
        <time>2013-07-02T15:38:06Z</time>
      </trkpt>
      <trkpt lat="44.11307" lon="3.16713">
        <ele>388</ele>
        <time>2013-07-02T15:38:10Z</time>
      </trkpt>
      <trkpt lat="44.11329" lon="3.16722">
        <ele>388</ele>
        <time>2013-07-02T15:38:14Z</time>
      </trkpt>
      <trkpt lat="44.11348" lon="3.16739">
        <ele>386</ele>
        <time>2013-07-02T15:38:18Z</time>
      </trkpt>
      <trkpt lat="44.11363" lon="3.16759">
        <ele>385</ele>
        <time>2013-07-02T15:38:22Z</time>
      </trkpt>
      <trkpt lat="44.11373" lon="3.16776">
        <ele>389</ele>
        <time>2013-07-02T15:38:26Z</time>
      </trkpt>
      <trkpt lat="44.11382" lon="3.16798">
        <ele>390</ele>
        <time>2013-07-02T15:38:30Z</time>
      </trkpt>
      <trkpt lat="44.11388" lon="3.16825">
        <ele>390</ele>
        <time>2013-07-02T15:38:34Z</time>
      </trkpt>
      <trkpt lat="44.11397" lon="3.1686">
        <ele>396</ele>
        <time>2013-07-02T15:38:38Z</time>
      </trkpt>
      <trkpt lat="44.11406" lon="3.16893">
        <ele>397</ele>
        <time>2013-07-02T15:38:42Z</time>
      </trkpt>
      <trkpt lat="44.11413" lon="3.16923">
        <ele>397</ele>
        <time>2013-07-02T15:38:46Z</time>
      </trkpt>
      <trkpt lat="44.11423" lon="3.16961">
        <ele>402</ele>
        <time>2013-07-02T15:38:50Z</time>
      </trkpt>
      <trkpt lat="44.11428" lon="3.16995">
        <ele>403</ele>
        <time>2013-07-02T15:38:54Z</time>
      </trkpt>
      <trkpt lat="44.1143" lon="3.17031">
        <ele>409</ele>
        <time>2013-07-02T15:38:58Z</time>
      </trkpt>
      <trkpt lat="44.11432" lon="3.17078">
        <ele>413</ele>
        <time>2013-07-02T15:39:02Z</time>
      </trkpt>
      <trkpt lat="44.11435" lon="3.17126">
        <ele>419</ele>
        <time>2013-07-02T15:39:06Z</time>
      </trkpt>
      <trkpt lat="44.11437" lon="3.17172">
        <ele>418</ele>
        <time>2013-07-02T15:39:10Z</time>
      </trkpt>
      <trkpt lat="44.11437" lon="3.17213">
        <ele>419</ele>
        <time>2013-07-02T15:39:14Z</time>
      </trkpt>
      <trkpt lat="44.11437" lon="3.17256">
        <ele>420</ele>
        <time>2013-07-02T15:39:18Z</time>
      </trkpt>
      <trkpt lat="44.11439" lon="3.17297">
        <ele>416</ele>
        <time>2013-07-02T15:39:22Z</time>
      </trkpt>
      <trkpt lat="44.11445" lon="3.17341">
        <ele>418</ele>
        <time>2013-07-02T15:39:26Z</time>
      </trkpt>
      <trkpt lat="44.11456" lon="3.17386">
        <ele>418</ele>
        <time>2013-07-02T15:39:30Z</time>
      </trkpt>
      <trkpt lat="44.11465" lon="3.17431">
        <ele>417</ele>
        <time>2013-07-02T15:39:34Z</time>
      </trkpt>
      <trkpt lat="44.11475" lon="3.17473">
        <ele>416</ele>
        <time>2013-07-02T15:39:38Z</time>
      </trkpt>
      <trkpt lat="44.1149" lon="3.17515">
        <ele>417</ele>
        <time>2013-07-02T15:39:42Z</time>
      </trkpt>
      <trkpt lat="44.11508" lon="3.17557">
        <ele>418</ele>
        <time>2013-07-02T15:39:46Z</time>
      </trkpt>
      <trkpt lat="44.11523" lon="3.17593">
        <ele>417</ele>
        <time>2013-07-02T15:39:50Z</time>
      </trkpt>
      <trkpt lat="44.11537" lon="3.17632">
        <ele>417</ele>
        <time>2013-07-02T15:39:54Z</time>
      </trkpt>
      <trkpt lat="44.11555" lon="3.17669">
        <ele>416</ele>
        <time>2013-07-02T15:39:58Z</time>
      </trkpt>
      <trkpt lat="44.11575" lon="3.17706">
        <ele>417</ele>
        <time>2013-07-02T15:40:02Z</time>
      </trkpt>
      <trkpt lat="44.11593" lon="3.17741">
        <ele>418</ele>
        <time>2013-07-02T15:40:06Z</time>
      </trkpt>
      <trkpt lat="44.11606" lon="3.17769">
        <ele>419</ele>
        <time>2013-07-02T15:40:10Z</time>
      </trkpt>
      <trkpt lat="44.11619" lon="3.17793">
        <ele>420</ele>
        <time>2013-07-02T15:40:14Z</time>
      </trkpt>
      <trkpt lat="44.11634" lon="3.17818">
        <ele>420</ele>
        <time>2013-07-02T15:40:18Z</time>
      </trkpt>
      <trkpt lat="44.1166" lon="3.17847">
        <ele>421</ele>
        <time>2013-07-02T15:40:22Z</time>
      </trkpt>
      <trkpt lat="44.11687" lon="3.17871">
        <ele>421</ele>
        <time>2013-07-02T15:40:26Z</time>
      </trkpt>
      <trkpt lat="44.1171" lon="3.17896">
        <ele>421</ele>
        <time>2013-07-02T15:40:30Z</time>
      </trkpt>
      <trkpt lat="44.11729" lon="3.17928">
        <ele>423</ele>
        <time>2013-07-02T15:40:34Z</time>
      </trkpt>
      <trkpt lat="44.11744" lon="3.17958">
        <ele>424</ele>
        <time>2013-07-02T15:40:38Z</time>
      </trkpt>
      <trkpt lat="44.11755" lon="3.17984">
        <ele>425</ele>
        <time>2013-07-02T15:40:41Z</time>
      </trkpt>
      <trkpt lat="44.11758" lon="3.17993">
        <ele>424</ele>
        <time>2013-07-02T15:40:42Z</time>
      </trkpt>
      <trkpt lat="44.11771" lon="3.18034">
        <ele>424</ele>
        <time>2013-07-02T15:40:46Z</time>
      </trkpt>
      <trkpt lat="44.11782" lon="3.18068">
        <ele>424</ele>
        <time>2013-07-02T15:40:50Z</time>
      </trkpt>
      <trkpt lat="44.11799" lon="3.18105">
        <ele>422</ele>
        <time>2013-07-02T15:40:54Z</time>
      </trkpt>
      <trkpt lat="44.1182" lon="3.18136">
        <ele>422</ele>
        <time>2013-07-02T15:40:58Z</time>
      </trkpt>
      <trkpt lat="44.11842" lon="3.18165">
        <ele>424</ele>
        <time>2013-07-02T15:41:02Z</time>
      </trkpt>
      <trkpt lat="44.11858" lon="3.18189">
        <ele>425</ele>
        <time>2013-07-02T15:41:06Z</time>
      </trkpt>
      <trkpt lat="44.11877" lon="3.18216">
        <ele>425</ele>
        <time>2013-07-02T15:41:10Z</time>
      </trkpt>
      <trkpt lat="44.11929" lon="3.18305">
        <ele>421</ele>
        <time>2013-07-02T15:41:18Z</time>
      </trkpt>
      <trkpt lat="44.11934" lon="3.18315">
        <ele>419</ele>
        <time>2013-07-02T15:41:19Z</time>
      </trkpt>
      <trkpt lat="44.11948" lon="3.18344">
        <ele>417</ele>
        <time>2013-07-02T15:41:22Z</time>
      </trkpt>
      <trkpt lat="44.11953" lon="3.18353">
        <ele>416</ele>
        <time>2013-07-02T15:41:23Z</time>
      </trkpt>
      <trkpt lat="44.11967" lon="3.18381">
        <ele>417</ele>
        <time>2013-07-02T15:41:26Z</time>
      </trkpt>
      <trkpt lat="44.11983" lon="3.18415">
        <ele>411</ele>
        <time>2013-07-02T15:41:30Z</time>
      </trkpt>
      <trkpt lat="44.11997" lon="3.18447">
        <ele>411</ele>
        <time>2013-07-02T15:41:34Z</time>
      </trkpt>
      <trkpt lat="44.12" lon="3.18482">
        <ele>410</ele>
        <time>2013-07-02T15:41:38Z</time>
      </trkpt>
      <trkpt lat="44.12006" lon="3.18522">
        <ele>413</ele>
        <time>2013-07-02T15:41:42Z</time>
      </trkpt>
      <trkpt lat="44.12014" lon="3.18559">
        <ele>416</ele>
        <time>2013-07-02T15:41:46Z</time>
      </trkpt>
      <trkpt lat="44.12024" lon="3.18598">
        <ele>416</ele>
        <time>2013-07-02T15:41:50Z</time>
      </trkpt>
      <trkpt lat="44.12034" lon="3.18632">
        <ele>416</ele>
        <time>2013-07-02T15:41:54Z</time>
      </trkpt>
      <trkpt lat="44.12043" lon="3.18659">
        <ele>411</ele>
        <time>2013-07-02T15:41:58Z</time>
      </trkpt>
      <trkpt lat="44.12053" lon="3.18683">
        <ele>407</ele>
        <time>2013-07-02T15:42:02Z</time>
      </trkpt>
      <trkpt lat="44.1207" lon="3.18713">
        <ele>405</ele>
        <time>2013-07-02T15:42:06Z</time>
      </trkpt>
      <trkpt lat="44.12085" lon="3.18743">
        <ele>406</ele>
        <time>2013-07-02T15:42:10Z</time>
      </trkpt>
      <trkpt lat="44.12099" lon="3.18774">
        <ele>408</ele>
        <time>2013-07-02T15:42:14Z</time>
      </trkpt>
      <trkpt lat="44.12109" lon="3.18806">
        <ele>411</ele>
        <time>2013-07-02T15:42:18Z</time>
      </trkpt>
      <trkpt lat="44.12118" lon="3.1884">
        <ele>411</ele>
        <time>2013-07-02T15:42:22Z</time>
      </trkpt>
      <trkpt lat="44.12125" lon="3.18877">
        <ele>414</ele>
        <time>2013-07-02T15:42:26Z</time>
      </trkpt>
      <trkpt lat="44.1213" lon="3.18908">
        <ele>414</ele>
        <time>2013-07-02T15:42:30Z</time>
      </trkpt>
      <trkpt lat="44.12129" lon="3.18942">
        <ele>419</ele>
        <time>2013-07-02T15:42:34Z</time>
      </trkpt>
      <trkpt lat="44.12126" lon="3.18972">
        <ele>420</ele>
        <time>2013-07-02T15:42:38Z</time>
      </trkpt>
      <trkpt lat="44.12123" lon="3.19002">
        <ele>424</ele>
        <time>2013-07-02T15:42:42Z</time>
      </trkpt>
      <trkpt lat="44.12118" lon="3.19032">
        <ele>429</ele>
        <time>2013-07-02T15:42:46Z</time>
      </trkpt>
      <trkpt lat="44.12109" lon="3.19062">
        <ele>432</ele>
        <time>2013-07-02T15:42:50Z</time>
      </trkpt>
      <trkpt lat="44.121" lon="3.19092">
        <ele>431</ele>
        <time>2013-07-02T15:42:54Z</time>
      </trkpt>
      <trkpt lat="44.12088" lon="3.19129">
        <ele>429</ele>
        <time>2013-07-02T15:42:58Z</time>
      </trkpt>
      <trkpt lat="44.12083" lon="3.19164">
        <ele>429</ele>
        <time>2013-07-02T15:43:02Z</time>
      </trkpt>
      <trkpt lat="44.12085" lon="3.19192">
        <ele>428</ele>
        <time>2013-07-02T15:43:06Z</time>
      </trkpt>
      <trkpt lat="44.12092" lon="3.19217">
        <ele>423</ele>
        <time>2013-07-02T15:43:10Z</time>
      </trkpt>
      <trkpt lat="44.12104" lon="3.19241">
        <ele>425</ele>
        <time>2013-07-02T15:43:14Z</time>
      </trkpt>
      <trkpt lat="44.12118" lon="3.19263">
        <ele>425</ele>
        <time>2013-07-02T15:43:18Z</time>
      </trkpt>
      <trkpt lat="44.12133" lon="3.1929">
        <ele>426</ele>
        <time>2013-07-02T15:43:22Z</time>
      </trkpt>
      <trkpt lat="44.12146" lon="3.19316">
        <ele>426</ele>
        <time>2013-07-02T15:43:26Z</time>
      </trkpt>
      <trkpt lat="44.12156" lon="3.19334">
        <ele>427</ele>
        <time>2013-07-02T15:43:30Z</time>
      </trkpt>
      <trkpt lat="44.12166" lon="3.19354">
        <ele>429</ele>
        <time>2013-07-02T15:43:34Z</time>
      </trkpt>
      <trkpt lat="44.12188" lon="3.19403">
        <ele>429</ele>
        <time>2013-07-02T15:43:42Z</time>
      </trkpt>
      <trkpt lat="44.12203" lon="3.19436">
        <ele>430</ele>
        <time>2013-07-02T15:43:46Z</time>
      </trkpt>
      <trkpt lat="44.12214" lon="3.19465">
        <ele>430</ele>
        <time>2013-07-02T15:43:50Z</time>
      </trkpt>
      <trkpt lat="44.12227" lon="3.195">
        <ele>430</ele>
        <time>2013-07-02T15:43:54Z</time>
      </trkpt>
      <trkpt lat="44.12241" lon="3.19531">
        <ele>430</ele>
        <time>2013-07-02T15:43:58Z</time>
      </trkpt>
      <trkpt lat="44.12247" lon="3.19558">
        <ele>432</ele>
        <time>2013-07-02T15:44:02Z</time>
      </trkpt>
      <trkpt lat="44.12255" lon="3.19595">
        <ele>433</ele>
        <time>2013-07-02T15:44:06Z</time>
      </trkpt>
      <trkpt lat="44.12264" lon="3.19629">
        <ele>433</ele>
        <time>2013-07-02T15:44:10Z</time>
      </trkpt>
      <trkpt lat="44.12268" lon="3.19662">
        <ele>433</ele>
        <time>2013-07-02T15:44:14Z</time>
      </trkpt>
      <trkpt lat="44.12268" lon="3.19697">
        <ele>433</ele>
        <time>2013-07-02T15:44:18Z</time>
      </trkpt>
      <trkpt lat="44.1227" lon="3.19737">
        <ele>429</ele>
        <time>2013-07-02T15:44:22Z</time>
      </trkpt>
      <trkpt lat="44.12271" lon="3.19773">
        <ele>426</ele>
        <time>2013-07-02T15:44:26Z</time>
      </trkpt>
      <trkpt lat="44.12269" lon="3.19807">
        <ele>420</ele>
        <time>2013-07-02T15:44:30Z</time>
      </trkpt>
      <trkpt lat="44.12266" lon="3.19842">
        <ele>421</ele>
        <time>2013-07-02T15:44:34Z</time>
      </trkpt>
      <trkpt lat="44.12262" lon="3.19875">
        <ele>421</ele>
        <time>2013-07-02T15:44:38Z</time>
      </trkpt>
      <trkpt lat="44.12262" lon="3.19907">
        <ele>422</ele>
        <time>2013-07-02T15:44:42Z</time>
      </trkpt>
      <trkpt lat="44.1226" lon="3.19936">
        <ele>422</ele>
        <time>2013-07-02T15:44:46Z</time>
      </trkpt>
      <trkpt lat="44.12258" lon="3.19972">
        <ele>425</ele>
        <time>2013-07-02T15:44:50Z</time>
      </trkpt>
      <trkpt lat="44.12252" lon="3.20009">
        <ele>421</ele>
        <time>2013-07-02T15:44:54Z</time>
      </trkpt>
      <trkpt lat="44.12248" lon="3.20047">
        <ele>418</ele>
        <time>2013-07-02T15:44:58Z</time>
      </trkpt>
      <trkpt lat="44.12246" lon="3.20085">
        <ele>419</ele>
        <time>2013-07-02T15:45:02Z</time>
      </trkpt>
      <trkpt lat="44.12242" lon="3.2012">
        <ele>413</ele>
        <time>2013-07-02T15:45:06Z</time>
      </trkpt>
      <trkpt lat="44.12237" lon="3.20158">
        <ele>412</ele>
        <time>2013-07-02T15:45:10Z</time>
      </trkpt>
      <trkpt lat="44.12235" lon="3.20193">
        <ele>413</ele>
        <time>2013-07-02T15:45:14Z</time>
      </trkpt>
      <trkpt lat="44.12233" lon="3.20228">
        <ele>415</ele>
        <time>2013-07-02T15:45:18Z</time>
      </trkpt>
      <trkpt lat="44.1223" lon="3.2026">
        <ele>420</ele>
        <time>2013-07-02T15:45:22Z</time>
      </trkpt>
      <trkpt lat="44.12226" lon="3.20297">
        <ele>425</ele>
        <time>2013-07-02T15:45:26Z</time>
      </trkpt>
      <trkpt lat="44.12222" lon="3.20327">
        <ele>428</ele>
        <time>2013-07-02T15:45:30Z</time>
      </trkpt>
      <trkpt lat="44.12221" lon="3.2035">
        <ele>430</ele>
        <time>2013-07-02T15:45:34Z</time>
      </trkpt>
      <trkpt lat="44.12206" lon="3.20382">
        <ele>421</ele>
        <time>2013-07-02T15:45:38Z</time>
      </trkpt>
      <trkpt lat="44.12191" lon="3.20418">
        <ele>418</ele>
        <time>2013-07-02T15:45:42Z</time>
      </trkpt>
      <trkpt lat="44.12179" lon="3.20453">
        <ele>416</ele>
        <time>2013-07-02T15:45:46Z</time>
      </trkpt>
      <trkpt lat="44.12167" lon="3.20488">
        <ele>415</ele>
        <time>2013-07-02T15:45:50Z</time>
      </trkpt>
      <trkpt lat="44.12155" lon="3.20521">
        <ele>415</ele>
        <time>2013-07-02T15:45:54Z</time>
      </trkpt>
      <trkpt lat="44.12146" lon="3.20555">
        <ele>415</ele>
        <time>2013-07-02T15:45:58Z</time>
      </trkpt>
      <trkpt lat="44.12141" lon="3.20592">
        <ele>411</ele>
        <time>2013-07-02T15:46:02Z</time>
      </trkpt>
      <trkpt lat="44.1214" lon="3.20628">
        <ele>403</ele>
        <time>2013-07-02T15:46:06Z</time>
      </trkpt>
      <trkpt lat="44.12141" lon="3.2066">
        <ele>406</ele>
        <time>2013-07-02T15:46:10Z</time>
      </trkpt>
      <trkpt lat="44.12143" lon="3.2069">
        <ele>409</ele>
        <time>2013-07-02T15:46:14Z</time>
      </trkpt>
      <trkpt lat="44.12147" lon="3.20718">
        <ele>412</ele>
        <time>2013-07-02T15:46:18Z</time>
      </trkpt>
      <trkpt lat="44.12151" lon="3.20747">
        <ele>415</ele>
        <time>2013-07-02T15:46:22Z</time>
      </trkpt>
      <trkpt lat="44.12157" lon="3.20781">
        <ele>420</ele>
        <time>2013-07-02T15:46:26Z</time>
      </trkpt>
      <trkpt lat="44.1216" lon="3.20814">
        <ele>423</ele>
        <time>2013-07-02T15:46:30Z</time>
      </trkpt>
      <trkpt lat="44.12164" lon="3.20848">
        <ele>427</ele>
        <time>2013-07-02T15:46:34Z</time>
      </trkpt>
      <trkpt lat="44.12173" lon="3.20888">
        <ele>431</ele>
        <time>2013-07-02T15:46:38Z</time>
      </trkpt>
      <trkpt lat="44.12179" lon="3.20926">
        <ele>434</ele>
        <time>2013-07-02T15:46:42Z</time>
      </trkpt>
      <trkpt lat="44.12183" lon="3.20962">
        <ele>436</ele>
        <time>2013-07-02T15:46:46Z</time>
      </trkpt>
      <trkpt lat="44.12185" lon="3.20994">
        <ele>440</ele>
        <time>2013-07-02T15:46:50Z</time>
      </trkpt>
      <trkpt lat="44.12185" lon="3.21027">
        <ele>446</ele>
        <time>2013-07-02T15:46:54Z</time>
      </trkpt>
      <trkpt lat="44.12188" lon="3.21059">
        <ele>450</ele>
        <time>2013-07-02T15:46:58Z</time>
      </trkpt>
      <trkpt lat="44.12187" lon="3.21094">
        <ele>456</ele>
        <time>2013-07-02T15:47:02Z</time>
      </trkpt>
      <trkpt lat="44.12183" lon="3.2113">
        <ele>462</ele>
        <time>2013-07-02T15:47:06Z</time>
      </trkpt>
      <trkpt lat="44.12177" lon="3.21155">
        <ele>446</ele>
        <time>2013-07-02T15:47:10Z</time>
      </trkpt>
      <trkpt lat="44.12166" lon="3.21172">
        <ele>451</ele>
        <time>2013-07-02T15:47:14Z</time>
      </trkpt>
      <trkpt lat="44.12148" lon="3.21187">
        <ele>453</ele>
        <time>2013-07-02T15:47:18Z</time>
      </trkpt>
      <trkpt lat="44.12125" lon="3.21202">
        <ele>452</ele>
        <time>2013-07-02T15:47:22Z</time>
      </trkpt>
      <trkpt lat="44.12101" lon="3.21218">
        <ele>453</ele>
        <time>2013-07-02T15:47:26Z</time>
      </trkpt>
      <trkpt lat="44.12076" lon="3.21234">
        <ele>454</ele>
        <time>2013-07-02T15:47:30Z</time>
      </trkpt>
      <trkpt lat="44.12051" lon="3.21254">
        <ele>454</ele>
        <time>2013-07-02T15:47:34Z</time>
      </trkpt>
      <trkpt lat="44.12028" lon="3.21276">
        <ele>453</ele>
        <time>2013-07-02T15:47:38Z</time>
      </trkpt>
      <trkpt lat="44.12009" lon="3.21305">
        <ele>452</ele>
        <time>2013-07-02T15:47:42Z</time>
      </trkpt>
      <trkpt lat="44.11999" lon="3.21339">
        <ele>450</ele>
        <time>2013-07-02T15:47:46Z</time>
      </trkpt>
      <trkpt lat="44.11994" lon="3.2138">
        <ele>436</ele>
        <time>2013-07-02T15:47:50Z</time>
      </trkpt>
      <trkpt lat="44.11991" lon="3.2142">
        <ele>427</ele>
        <time>2013-07-02T15:47:54Z</time>
      </trkpt>
      <trkpt lat="44.11995" lon="3.21461">
        <ele>431</ele>
        <time>2013-07-02T15:47:58Z</time>
      </trkpt>
      <trkpt lat="44.12003" lon="3.21488">
        <ele>437</ele>
        <time>2013-07-02T15:48:02Z</time>
      </trkpt>
      <trkpt lat="44.12011" lon="3.21513">
        <ele>442</ele>
        <time>2013-07-02T15:48:06Z</time>
      </trkpt>
      <trkpt lat="44.12023" lon="3.21542">
        <ele>446</ele>
        <time>2013-07-02T15:48:10Z</time>
      </trkpt>
      <trkpt lat="44.12039" lon="3.21571">
        <ele>448</ele>
        <time>2013-07-02T15:48:14Z</time>
      </trkpt>
      <trkpt lat="44.12054" lon="3.21593">
        <ele>449</ele>
        <time>2013-07-02T15:48:18Z</time>
      </trkpt>
      <trkpt lat="44.12073" lon="3.21621">
        <ele>449</ele>
        <time>2013-07-02T15:48:22Z</time>
      </trkpt>
      <trkpt lat="44.12093" lon="3.21644">
        <ele>450</ele>
        <time>2013-07-02T15:48:26Z</time>
      </trkpt>
      <trkpt lat="44.12112" lon="3.21663">
        <ele>451</ele>
        <time>2013-07-02T15:48:30Z</time>
      </trkpt>
      <trkpt lat="44.12133" lon="3.21688">
        <ele>450</ele>
        <time>2013-07-02T15:48:34Z</time>
      </trkpt>
      <trkpt lat="44.1216" lon="3.21716">
        <ele>452</ele>
        <time>2013-07-02T15:48:38Z</time>
      </trkpt>
      <trkpt lat="44.12186" lon="3.21745">
        <ele>450</ele>
        <time>2013-07-02T15:48:42Z</time>
      </trkpt>
      <trkpt lat="44.12204" lon="3.21772">
        <ele>448</ele>
        <time>2013-07-02T15:48:46Z</time>
      </trkpt>
      <trkpt lat="44.12215" lon="3.21799">
        <ele>448</ele>
        <time>2013-07-02T15:48:50Z</time>
      </trkpt>
      <trkpt lat="44.12223" lon="3.21826">
        <ele>448</ele>
        <time>2013-07-02T15:48:54Z</time>
      </trkpt>
      <trkpt lat="44.12231" lon="3.21858">
        <ele>449</ele>
        <time>2013-07-02T15:48:58Z</time>
      </trkpt>
      <trkpt lat="44.12239" lon="3.21889">
        <ele>449</ele>
        <time>2013-07-02T15:49:02Z</time>
      </trkpt>
      <trkpt lat="44.12248" lon="3.21916">
        <ele>450</ele>
        <time>2013-07-02T15:49:06Z</time>
      </trkpt>
      <trkpt lat="44.1226" lon="3.21947">
        <ele>453</ele>
        <time>2013-07-02T15:49:10Z</time>
      </trkpt>
      <trkpt lat="44.12272" lon="3.21983">
        <ele>455</ele>
        <time>2013-07-02T15:49:14Z</time>
      </trkpt>
      <trkpt lat="44.12278" lon="3.22018">
        <ele>456</ele>
        <time>2013-07-02T15:49:18Z</time>
      </trkpt>
      <trkpt lat="44.12285" lon="3.22053">
        <ele>458</ele>
        <time>2013-07-02T15:49:22Z</time>
      </trkpt>
      <trkpt lat="44.12292" lon="3.22089">
        <ele>459</ele>
        <time>2013-07-02T15:49:26Z</time>
      </trkpt>
      <trkpt lat="44.123" lon="3.22117">
        <ele>429</ele>
        <time>2013-07-02T15:49:30Z</time>
      </trkpt>
      <trkpt lat="44.12307" lon="3.22146">
        <ele>430</ele>
        <time>2013-07-02T15:49:34Z</time>
      </trkpt>
      <trkpt lat="44.12317" lon="3.22165">
        <ele>424</ele>
        <time>2013-07-02T15:49:38Z</time>
      </trkpt>
      <trkpt lat="44.12326" lon="3.22162">
        <ele>424</ele>
        <time>2013-07-02T15:49:42Z</time>
      </trkpt>
      <trkpt lat="44.12322" lon="3.22144">
        <ele>427</ele>
        <time>2013-07-02T15:49:46Z</time>
      </trkpt>
      <trkpt lat="44.12315" lon="3.22119">
        <ele>432</ele>
        <time>2013-07-02T15:49:50Z</time>
      </trkpt>
      <trkpt lat="44.12309" lon="3.2209">
        <ele>438</ele>
        <time>2013-07-02T15:49:54Z</time>
      </trkpt>
      <trkpt lat="44.12302" lon="3.22056">
        <ele>442</ele>
        <time>2013-07-02T15:49:58Z</time>
      </trkpt>
      <trkpt lat="44.12296" lon="3.22021">
        <ele>444</ele>
        <time>2013-07-02T15:50:02Z</time>
      </trkpt>
      <trkpt lat="44.12287" lon="3.21984">
        <ele>446</ele>
        <time>2013-07-02T15:50:06Z</time>
      </trkpt>
      <trkpt lat="44.12272" lon="3.21947">
        <ele>450</ele>
        <time>2013-07-02T15:50:10Z</time>
      </trkpt>
      <trkpt lat="44.12252" lon="3.21915">
        <ele>452</ele>
        <time>2013-07-02T15:50:14Z</time>
      </trkpt>
      <trkpt lat="44.12237" lon="3.21883">
        <ele>451</ele>
        <time>2013-07-02T15:50:18Z</time>
      </trkpt>
      <trkpt lat="44.12223" lon="3.21846">
        <ele>454</ele>
        <time>2013-07-02T15:50:22Z</time>
      </trkpt>
      <trkpt lat="44.12208" lon="3.21811">
        <ele>455</ele>
        <time>2013-07-02T15:50:26Z</time>
      </trkpt>
      <trkpt lat="44.12193" lon="3.21779">
        <ele>458</ele>
        <time>2013-07-02T15:50:30Z</time>
      </trkpt>
      <trkpt lat="44.12171" lon="3.2175">
        <ele>459</ele>
        <time>2013-07-02T15:50:34Z</time>
      </trkpt>
      <trkpt lat="44.12148" lon="3.21722">
        <ele>458</ele>
        <time>2013-07-02T15:50:38Z</time>
      </trkpt>
      <trkpt lat="44.12125" lon="3.21697">
        <ele>457</ele>
        <time>2013-07-02T15:50:42Z</time>
      </trkpt>
      <trkpt lat="44.12103" lon="3.2167">
        <ele>457</ele>
        <time>2013-07-02T15:50:46Z</time>
      </trkpt>
      <trkpt lat="44.1208" lon="3.21641">
        <ele>457</ele>
        <time>2013-07-02T15:50:50Z</time>
      </trkpt>
      <trkpt lat="44.12057" lon="3.21608">
        <ele>457</ele>
        <time>2013-07-02T15:50:54Z</time>
      </trkpt>
      <trkpt lat="44.12035" lon="3.21575">
        <ele>458</ele>
        <time>2013-07-02T15:50:58Z</time>
      </trkpt>
      <trkpt lat="44.12014" lon="3.21538">
        <ele>458</ele>
        <time>2013-07-02T15:51:02Z</time>
      </trkpt>
      <trkpt lat="44.11993" lon="3.21498">
        <ele>458</ele>
        <time>2013-07-02T15:51:06Z</time>
      </trkpt>
      <trkpt lat="44.11974" lon="3.21458">
        <ele>461</ele>
        <time>2013-07-02T15:51:10Z</time>
      </trkpt>
      <trkpt lat="44.11969" lon="3.21407">
        <ele>461</ele>
        <time>2013-07-02T15:51:14Z</time>
      </trkpt>
      <trkpt lat="44.1198" lon="3.21361">
        <ele>455</ele>
        <time>2013-07-02T15:51:18Z</time>
      </trkpt>
      <trkpt lat="44.12002" lon="3.21319">
        <ele>447</ele>
        <time>2013-07-02T15:51:22Z</time>
      </trkpt>
      <trkpt lat="44.12029" lon="3.2129">
        <ele>442</ele>
        <time>2013-07-02T15:51:26Z</time>
      </trkpt>
      <trkpt lat="44.12057" lon="3.21268">
        <ele>440</ele>
        <time>2013-07-02T15:51:30Z</time>
      </trkpt>
      <trkpt lat="44.12085" lon="3.21249">
        <ele>440</ele>
        <time>2013-07-02T15:51:34Z</time>
      </trkpt>
      <trkpt lat="44.12114" lon="3.21231">
        <ele>440</ele>
        <time>2013-07-02T15:51:38Z</time>
      </trkpt>
      <trkpt lat="44.12141" lon="3.21212">
        <ele>441</ele>
        <time>2013-07-02T15:51:42Z</time>
      </trkpt>
      <trkpt lat="44.1217" lon="3.21189">
        <ele>445</ele>
        <time>2013-07-02T15:51:46Z</time>
      </trkpt>
      <trkpt lat="44.12191" lon="3.21157">
        <ele>444</ele>
        <time>2013-07-02T15:51:50Z</time>
      </trkpt>
      <trkpt lat="44.12204" lon="3.21122">
        <ele>444</ele>
        <time>2013-07-02T15:51:54Z</time>
      </trkpt>
      <trkpt lat="44.12207" lon="3.21082">
        <ele>446</ele>
        <time>2013-07-02T15:51:58Z</time>
      </trkpt>
      <trkpt lat="44.12203" lon="3.21041">
        <ele>450</ele>
        <time>2013-07-02T15:52:02Z</time>
      </trkpt>
      <trkpt lat="44.12199" lon="3.21">
        <ele>451</ele>
        <time>2013-07-02T15:52:06Z</time>
      </trkpt>
      <trkpt lat="44.12195" lon="3.20958">
        <ele>454</ele>
        <time>2013-07-02T15:52:10Z</time>
      </trkpt>
      <trkpt lat="44.1219" lon="3.20915">
        <ele>455</ele>
        <time>2013-07-02T15:52:14Z</time>
      </trkpt>
      <trkpt lat="44.1218" lon="3.20872">
        <ele>456</ele>
        <time>2013-07-02T15:52:18Z</time>
      </trkpt>
      <trkpt lat="44.12169" lon="3.20829">
        <ele>458</ele>
        <time>2013-07-02T15:52:22Z</time>
      </trkpt>
      <trkpt lat="44.1216" lon="3.20788">
        <ele>458</ele>
        <time>2013-07-02T15:52:26Z</time>
      </trkpt>
      <trkpt lat="44.12149" lon="3.20748">
        <ele>456</ele>
        <time>2013-07-02T15:52:30Z</time>
      </trkpt>
      <trkpt lat="44.12139" lon="3.20708">
        <ele>455</ele>
        <time>2013-07-02T15:52:34Z</time>
      </trkpt>
      <trkpt lat="44.12133" lon="3.20664">
        <ele>454</ele>
        <time>2013-07-02T15:52:38Z</time>
      </trkpt>
      <trkpt lat="44.1213" lon="3.20618">
        <ele>454</ele>
        <time>2013-07-02T15:52:42Z</time>
      </trkpt>
      <trkpt lat="44.12138" lon="3.2057">
        <ele>447</ele>
        <time>2013-07-02T15:52:46Z</time>
      </trkpt>
      <trkpt lat="44.12154" lon="3.20524">
        <ele>439</ele>
        <time>2013-07-02T15:52:50Z</time>
      </trkpt>
      <trkpt lat="44.1217" lon="3.20479">
        <ele>432</ele>
        <time>2013-07-02T15:52:54Z</time>
      </trkpt>
      <trkpt lat="44.12185" lon="3.20435">
        <ele>427</ele>
        <time>2013-07-02T15:52:58Z</time>
      </trkpt>
      <trkpt lat="44.122" lon="3.20394">
        <ele>424</ele>
        <time>2013-07-02T15:53:02Z</time>
      </trkpt>
      <trkpt lat="44.12215" lon="3.20354">
        <ele>422</ele>
        <time>2013-07-02T15:53:06Z</time>
      </trkpt>
      <trkpt lat="44.12229" lon="3.20314">
        <ele>423</ele>
        <time>2013-07-02T15:53:10Z</time>
      </trkpt>
      <trkpt lat="44.12238" lon="3.20271">
        <ele>422</ele>
        <time>2013-07-02T15:53:14Z</time>
      </trkpt>
      <trkpt lat="44.12242" lon="3.20227">
        <ele>420</ele>
        <time>2013-07-02T15:53:18Z</time>
      </trkpt>
      <trkpt lat="44.12242" lon="3.20183">
        <ele>421</ele>
        <time>2013-07-02T15:53:22Z</time>
      </trkpt>
      <trkpt lat="44.12241" lon="3.20138">
        <ele>422</ele>
        <time>2013-07-02T15:53:26Z</time>
      </trkpt>
      <trkpt lat="44.12241" lon="3.20092">
        <ele>423</ele>
        <time>2013-07-02T15:53:30Z</time>
      </trkpt>
      <trkpt lat="44.12244" lon="3.20043">
        <ele>422</ele>
        <time>2013-07-02T15:53:34Z</time>
      </trkpt>
      <trkpt lat="44.12248" lon="3.19992">
        <ele>420</ele>
        <time>2013-07-02T15:53:38Z</time>
      </trkpt>
      <trkpt lat="44.12252" lon="3.19946">
        <ele>418</ele>
        <time>2013-07-02T15:53:42Z</time>
      </trkpt>
      <trkpt lat="44.12257" lon="3.19897">
        <ele>420</ele>
        <time>2013-07-02T15:53:46Z</time>
      </trkpt>
      <trkpt lat="44.12262" lon="3.19846">
        <ele>417</ele>
        <time>2013-07-02T15:53:50Z</time>
      </trkpt>
      <trkpt lat="44.1227" lon="3.19798">
        <ele>415</ele>
        <time>2013-07-02T15:53:54Z</time>
      </trkpt>
      <trkpt lat="44.12278" lon="3.19753">
        <ele>416</ele>
        <time>2013-07-02T15:53:58Z</time>
      </trkpt>
      <trkpt lat="44.12283" lon="3.19707">
        <ele>418</ele>
        <time>2013-07-02T15:54:02Z</time>
      </trkpt>
      <trkpt lat="44.12281" lon="3.19662">
        <ele>412</ele>
        <time>2013-07-02T15:54:06Z</time>
      </trkpt>
      <trkpt lat="44.12278" lon="3.1962">
        <ele>413</ele>
        <time>2013-07-02T15:54:10Z</time>
      </trkpt>
      <trkpt lat="44.12271" lon="3.19577">
        <ele>415</ele>
        <time>2013-07-02T15:54:14Z</time>
      </trkpt>
      <trkpt lat="44.12259" lon="3.19537">
        <ele>415</ele>
        <time>2013-07-02T15:54:18Z</time>
      </trkpt>
      <trkpt lat="44.12244" lon="3.19493">
        <ele>416</ele>
        <time>2013-07-02T15:54:22Z</time>
      </trkpt>
      <trkpt lat="44.12228" lon="3.19453">
        <ele>418</ele>
        <time>2013-07-02T15:54:26Z</time>
      </trkpt>
      <trkpt lat="44.12212" lon="3.19417">
        <ele>418</ele>
        <time>2013-07-02T15:54:30Z</time>
      </trkpt>
      <trkpt lat="44.12191" lon="3.19382">
        <ele>422</ele>
        <time>2013-07-02T15:54:34Z</time>
      </trkpt>
      <trkpt lat="44.12169" lon="3.19348">
        <ele>424</ele>
        <time>2013-07-02T15:54:38Z</time>
      </trkpt>
      <trkpt lat="44.12148" lon="3.19314">
        <ele>425</ele>
        <time>2013-07-02T15:54:42Z</time>
      </trkpt>
      <trkpt lat="44.12126" lon="3.1928">
        <ele>426</ele>
        <time>2013-07-02T15:54:46Z</time>
      </trkpt>
      <trkpt lat="44.12101" lon="3.19247">
        <ele>433</ele>
        <time>2013-07-02T15:54:50Z</time>
      </trkpt>
      <trkpt lat="44.12083" lon="3.19205">
        <ele>433</ele>
        <time>2013-07-02T15:54:54Z</time>
      </trkpt>
      <trkpt lat="44.12082" lon="3.19152">
        <ele>426</ele>
        <time>2013-07-02T15:54:58Z</time>
      </trkpt>
      <trkpt lat="44.12095" lon="3.19097">
        <ele>411</ele>
        <time>2013-07-02T15:55:02Z</time>
      </trkpt>
      <trkpt lat="44.12112" lon="3.19048">
        <ele>403</ele>
        <time>2013-07-02T15:55:06Z</time>
      </trkpt>
      <trkpt lat="44.12127" lon="3.19006">
        <ele>396</ele>
        <time>2013-07-02T15:55:10Z</time>
      </trkpt>
      <trkpt lat="44.12138" lon="3.18962">
        <ele>394</ele>
        <time>2013-07-02T15:55:14Z</time>
      </trkpt>
      <trkpt lat="44.12144" lon="3.18921">
        <ele>394</ele>
        <time>2013-07-02T15:55:18Z</time>
      </trkpt>
      <trkpt lat="44.1214" lon="3.18877">
        <ele>394</ele>
        <time>2013-07-02T15:55:22Z</time>
      </trkpt>
      <trkpt lat="44.12133" lon="3.18834">
        <ele>395</ele>
        <time>2013-07-02T15:55:26Z</time>
      </trkpt>
      <trkpt lat="44.12121" lon="3.18794">
        <ele>400</ele>
        <time>2013-07-02T15:55:30Z</time>
      </trkpt>
      <trkpt lat="44.12108" lon="3.18762">
        <ele>397</ele>
        <time>2013-07-02T15:55:34Z</time>
      </trkpt>
      <trkpt lat="44.12088" lon="3.18727">
        <ele>401</ele>
        <time>2013-07-02T15:55:38Z</time>
      </trkpt>
      <trkpt lat="44.12067" lon="3.18688">
        <ele>403</ele>
        <time>2013-07-02T15:55:42Z</time>
      </trkpt>
      <trkpt lat="44.12048" lon="3.18648">
        <ele>407</ele>
        <time>2013-07-02T15:55:46Z</time>
      </trkpt>
      <trkpt lat="44.12032" lon="3.18603">
        <ele>409</ele>
        <time>2013-07-02T15:55:50Z</time>
      </trkpt>
      <trkpt lat="44.1202" lon="3.18557">
        <ele>413</ele>
        <time>2013-07-02T15:55:54Z</time>
      </trkpt>
      <trkpt lat="44.1201" lon="3.18506">
        <ele>414</ele>
        <time>2013-07-02T15:55:58Z</time>
      </trkpt>
      <trkpt lat="44.12002" lon="3.18456">
        <ele>414</ele>
        <time>2013-07-02T15:56:02Z</time>
      </trkpt>
      <trkpt lat="44.11982" lon="3.18412">
        <ele>417</ele>
        <time>2013-07-02T15:56:06Z</time>
      </trkpt>
      <trkpt lat="44.11961" lon="3.18368">
        <ele>417</ele>
        <time>2013-07-02T15:56:10Z</time>
      </trkpt>
      <trkpt lat="44.1194" lon="3.18324">
        <ele>418</ele>
        <time>2013-07-02T15:56:14Z</time>
      </trkpt>
      <trkpt lat="44.11921" lon="3.18283">
        <ele>415</ele>
        <time>2013-07-02T15:56:18Z</time>
      </trkpt>
      <trkpt lat="44.11901" lon="3.18246">
        <ele>411</ele>
        <time>2013-07-02T15:56:22Z</time>
      </trkpt>
      <trkpt lat="44.11881" lon="3.18214">
        <ele>405</ele>
        <time>2013-07-02T15:56:26Z</time>
      </trkpt>
      <trkpt lat="44.11862" lon="3.1818">
        <ele>403</ele>
        <time>2013-07-02T15:56:30Z</time>
      </trkpt>
      <trkpt lat="44.11839" lon="3.18149">
        <ele>405</ele>
        <time>2013-07-02T15:56:34Z</time>
      </trkpt>
      <trkpt lat="44.11818" lon="3.18112">
        <ele>406</ele>
        <time>2013-07-02T15:56:38Z</time>
      </trkpt>
      <trkpt lat="44.11799" lon="3.18077">
        <ele>405</ele>
        <time>2013-07-02T15:56:42Z</time>
      </trkpt>
      <trkpt lat="44.11781" lon="3.18043">
        <ele>404</ele>
        <time>2013-07-02T15:56:46Z</time>
      </trkpt>
      <trkpt lat="44.11763" lon="3.18005">
        <ele>402</ele>
        <time>2013-07-02T15:56:50Z</time>
      </trkpt>
      <trkpt lat="44.11744" lon="3.17968">
        <ele>402</ele>
        <time>2013-07-02T15:56:54Z</time>
      </trkpt>
      <trkpt lat="44.11725" lon="3.17933">
        <ele>402</ele>
        <time>2013-07-02T15:56:58Z</time>
      </trkpt>
      <trkpt lat="44.11701" lon="3.17902">
        <ele>402</ele>
        <time>2013-07-02T15:57:02Z</time>
      </trkpt>
      <trkpt lat="44.11678" lon="3.17875">
        <ele>403</ele>
        <time>2013-07-02T15:57:06Z</time>
      </trkpt>
      <trkpt lat="44.11655" lon="3.17849">
        <ele>403</ele>
        <time>2013-07-02T15:57:10Z</time>
      </trkpt>
      <trkpt lat="44.11636" lon="3.17815">
        <ele>403</ele>
        <time>2013-07-02T15:57:14Z</time>
      </trkpt>
      <trkpt lat="44.11616" lon="3.17779">
        <ele>401</ele>
        <time>2013-07-02T15:57:18Z</time>
      </trkpt>
      <trkpt lat="44.11596" lon="3.1774">
        <ele>399</ele>
        <time>2013-07-02T15:57:22Z</time>
      </trkpt>
      <trkpt lat="44.11577" lon="3.17703">
        <ele>405</ele>
        <time>2013-07-02T15:57:26Z</time>
      </trkpt>
      <trkpt lat="44.11562" lon="3.1767">
        <ele>404</ele>
        <time>2013-07-02T15:57:30Z</time>
      </trkpt>
      <trkpt lat="44.11545" lon="3.17633">
        <ele>408</ele>
        <time>2013-07-02T15:57:34Z</time>
      </trkpt>
      <trkpt lat="44.11529" lon="3.17596">
        <ele>413</ele>
        <time>2013-07-02T15:57:38Z</time>
      </trkpt>
      <trkpt lat="44.11514" lon="3.1756">
        <ele>407</ele>
        <time>2013-07-02T15:57:42Z</time>
      </trkpt>
      <trkpt lat="44.11502" lon="3.17525">
        <ele>404</ele>
        <time>2013-07-02T15:57:46Z</time>
      </trkpt>
      <trkpt lat="44.11487" lon="3.17494">
        <ele>409</ele>
        <time>2013-07-02T15:57:50Z</time>
      </trkpt>
      <trkpt lat="44.11475" lon="3.17466">
        <ele>410</ele>
        <time>2013-07-02T15:57:54Z</time>
      </trkpt>
      <trkpt lat="44.11466" lon="3.17435">
        <ele>413</ele>
        <time>2013-07-02T15:57:58Z</time>
      </trkpt>
      <trkpt lat="44.11461" lon="3.17392">
        <ele>414</ele>
        <time>2013-07-02T15:58:02Z</time>
      </trkpt>
      <trkpt lat="44.11456" lon="3.17355">
        <ele>417</ele>
        <time>2013-07-02T15:58:06Z</time>
      </trkpt>
      <trkpt lat="44.1145" lon="3.17321">
        <ele>418</ele>
        <time>2013-07-02T15:58:10Z</time>
      </trkpt>
      <trkpt lat="44.11446" lon="3.17285">
        <ele>423</ele>
        <time>2013-07-02T15:58:14Z</time>
      </trkpt>
      <trkpt lat="44.11443" lon="3.17249">
        <ele>422</ele>
        <time>2013-07-02T15:58:18Z</time>
      </trkpt>
      <trkpt lat="44.11444" lon="3.17211">
        <ele>419</ele>
        <time>2013-07-02T15:58:22Z</time>
      </trkpt>
      <trkpt lat="44.11444" lon="3.17173">
        <ele>415</ele>
        <time>2013-07-02T15:58:26Z</time>
      </trkpt>
      <trkpt lat="44.11442" lon="3.17141">
        <ele>419</ele>
        <time>2013-07-02T15:58:30Z</time>
      </trkpt>
      <trkpt lat="44.1144" lon="3.17107">
        <ele>419</ele>
        <time>2013-07-02T15:58:34Z</time>
      </trkpt>
      <trkpt lat="44.11439" lon="3.17072">
        <ele>416</ele>
        <time>2013-07-02T15:58:38Z</time>
      </trkpt>
      <trkpt lat="44.11439" lon="3.17042">
        <ele>420</ele>
        <time>2013-07-02T15:58:42Z</time>
      </trkpt>
      <trkpt lat="44.11438" lon="3.17011">
        <ele>416</ele>
        <time>2013-07-02T15:58:46Z</time>
      </trkpt>
      <trkpt lat="44.1143" lon="3.16982">
        <ele>418</ele>
        <time>2013-07-02T15:58:50Z</time>
      </trkpt>
      <trkpt lat="44.11421" lon="3.16952">
        <ele>423</ele>
        <time>2013-07-02T15:58:54Z</time>
      </trkpt>
      <trkpt lat="44.11413" lon="3.16924">
        <ele>422</ele>
        <time>2013-07-02T15:58:58Z</time>
      </trkpt>
      <trkpt lat="44.11403" lon="3.16891">
        <ele>427</ele>
        <time>2013-07-02T15:59:02Z</time>
      </trkpt>
      <trkpt lat="44.11393" lon="3.16856">
        <ele>427</ele>
        <time>2013-07-02T15:59:06Z</time>
      </trkpt>
      <trkpt lat="44.1138" lon="3.16822">
        <ele>424</ele>
        <time>2013-07-02T15:59:10Z</time>
      </trkpt>
      <trkpt lat="44.11365" lon="3.16792">
        <ele>423</ele>
        <time>2013-07-02T15:59:14Z</time>
      </trkpt>
      <trkpt lat="44.11345" lon="3.16765">
        <ele>425</ele>
        <time>2013-07-02T15:59:18Z</time>
      </trkpt>
      <trkpt lat="44.11325" lon="3.1674">
        <ele>419</ele>
        <time>2013-07-02T15:59:22Z</time>
      </trkpt>
      <trkpt lat="44.11297" lon="3.16725">
        <ele>416</ele>
        <time>2013-07-02T15:59:26Z</time>
      </trkpt>
      <trkpt lat="44.11269" lon="3.16714">
        <ele>415</ele>
        <time>2013-07-02T15:59:30Z</time>
      </trkpt>
      <trkpt lat="44.11241" lon="3.16697">
        <ele>413</ele>
        <time>2013-07-02T15:59:34Z</time>
      </trkpt>
      <trkpt lat="44.11213" lon="3.16676">
        <ele>411</ele>
        <time>2013-07-02T15:59:38Z</time>
      </trkpt>
      <trkpt lat="44.112" lon="3.16668">
        <ele>406</ele>
        <time>2013-07-02T15:59:40Z</time>
      </trkpt>
      <trkpt lat="44.11194" lon="3.16663">
        <ele>404</ele>
        <time>2013-07-02T15:59:41Z</time>
      </trkpt>
      <trkpt lat="44.11187" lon="3.16657">
        <ele>403</ele>
        <time>2013-07-02T15:59:42Z</time>
      </trkpt>
      <trkpt lat="44.11181" lon="3.16651">
        <ele>402</ele>
        <time>2013-07-02T15:59:43Z</time>
      </trkpt>
      <trkpt lat="44.11165" lon="3.16631">
        <ele>399</ele>
        <time>2013-07-02T15:59:46Z</time>
      </trkpt>
      <trkpt lat="44.11145" lon="3.16596">
        <ele>398</ele>
        <time>2013-07-02T15:59:50Z</time>
      </trkpt>
      <trkpt lat="44.11124" lon="3.16562">
        <ele>397</ele>
        <time>2013-07-02T15:59:54Z</time>
      </trkpt>
      <trkpt lat="44.111" lon="3.16532">
        <ele>396</ele>
        <time>2013-07-02T15:59:58Z</time>
      </trkpt>
      <trkpt lat="44.11078" lon="3.16499">
        <ele>396</ele>
        <time>2013-07-02T16:00:02Z</time>
      </trkpt>
      <trkpt lat="44.11058" lon="3.16464">
        <ele>395</ele>
        <time>2013-07-02T16:00:06Z</time>
      </trkpt>
      <trkpt lat="44.11041" lon="3.16426">
        <ele>394</ele>
        <time>2013-07-02T16:00:11Z</time>
      </trkpt>
      <trkpt lat="44.11025" lon="3.16384">
        <ele>392</ele>
        <time>2013-07-02T16:00:14Z</time>
      </trkpt>
      <trkpt lat="44.1101" lon="3.16343">
        <ele>392</ele>
        <time>2013-07-02T16:00:18Z</time>
      </trkpt>
      <trkpt lat="44.10994" lon="3.16304">
        <ele>392</ele>
        <time>2013-07-02T16:00:22Z</time>
      </trkpt>
      <trkpt lat="44.10975" lon="3.16263">
        <ele>391</ele>
        <time>2013-07-02T16:00:26Z</time>
      </trkpt>
      <trkpt lat="44.10954" lon="3.16228">
        <ele>392</ele>
        <time>2013-07-02T16:00:30Z</time>
      </trkpt>
      <trkpt lat="44.10933" lon="3.16197">
        <ele>394</ele>
        <time>2013-07-02T16:00:34Z</time>
      </trkpt>
      <trkpt lat="44.10911" lon="3.16169">
        <ele>401</ele>
        <time>2013-07-02T16:00:38Z</time>
      </trkpt>
      <trkpt lat="44.10886" lon="3.16138">
        <ele>399</ele>
        <time>2013-07-02T16:00:42Z</time>
      </trkpt>
      <trkpt lat="44.10864" lon="3.16106">
        <ele>397</ele>
        <time>2013-07-02T16:00:46Z</time>
      </trkpt>
      <trkpt lat="44.10846" lon="3.16071">
        <ele>395</ele>
        <time>2013-07-02T16:00:50Z</time>
      </trkpt>
      <trkpt lat="44.10831" lon="3.16034">
        <ele>393</ele>
        <time>2013-07-02T16:00:54Z</time>
      </trkpt>
      <trkpt lat="44.10816" lon="3.15996">
        <ele>392</ele>
        <time>2013-07-02T16:00:58Z</time>
      </trkpt>
      <trkpt lat="44.10804" lon="3.15957">
        <ele>392</ele>
        <time>2013-07-02T16:01:02Z</time>
      </trkpt>
      <trkpt lat="44.10804" lon="3.15911">
        <ele>395</ele>
        <time>2013-07-02T16:01:06Z</time>
      </trkpt>
      <trkpt lat="44.10816" lon="3.15871">
        <ele>397</ele>
        <time>2013-07-02T16:01:10Z</time>
      </trkpt>
      <trkpt lat="44.10831" lon="3.15831">
        <ele>394</ele>
        <time>2013-07-02T16:01:14Z</time>
      </trkpt>
      <trkpt lat="44.1084" lon="3.15789">
        <ele>390</ele>
        <time>2013-07-02T16:01:18Z</time>
      </trkpt>
      <trkpt lat="44.10842" lon="3.15745">
        <ele>387</ele>
        <time>2013-07-02T16:01:22Z</time>
      </trkpt>
      <trkpt lat="44.10841" lon="3.15706">
        <ele>384</ele>
        <time>2013-07-02T16:01:26Z</time>
      </trkpt>
      <trkpt lat="44.10838" lon="3.15671">
        <ele>388</ele>
        <time>2013-07-02T16:01:30Z</time>
      </trkpt>
      <trkpt lat="44.10832" lon="3.15634">
        <ele>394</ele>
        <time>2013-07-02T16:01:34Z</time>
      </trkpt>
      <trkpt lat="44.1082" lon="3.15599">
        <ele>402</ele>
        <time>2013-07-02T16:01:38Z</time>
      </trkpt>
      <trkpt lat="44.10802" lon="3.15568">
        <ele>403</ele>
        <time>2013-07-02T16:01:42Z</time>
      </trkpt>
      <trkpt lat="44.10783" lon="3.15533">
        <ele>406</ele>
        <time>2013-07-02T16:01:46Z</time>
      </trkpt>
      <trkpt lat="44.10766" lon="3.15501">
        <ele>401</ele>
        <time>2013-07-02T16:01:50Z</time>
      </trkpt>
      <trkpt lat="44.10749" lon="3.15466">
        <ele>394</ele>
        <time>2013-07-02T16:01:54Z</time>
      </trkpt>
      <trkpt lat="44.10734" lon="3.15432">
        <ele>393</ele>
        <time>2013-07-02T16:01:59Z</time>
      </trkpt>
      <trkpt lat="44.10719" lon="3.15396">
        <ele>391</ele>
        <time>2013-07-02T16:02:02Z</time>
      </trkpt>
      <trkpt lat="44.10706" lon="3.15358">
        <ele>391</ele>
        <time>2013-07-02T16:02:06Z</time>
      </trkpt>
      <trkpt lat="44.10692" lon="3.1532">
        <ele>391</ele>
        <time>2013-07-02T16:02:10Z</time>
      </trkpt>
      <trkpt lat="44.10677" lon="3.15282">
        <ele>392</ele>
        <time>2013-07-02T16:02:14Z</time>
      </trkpt>
      <trkpt lat="44.10663" lon="3.15244">
        <ele>391</ele>
        <time>2013-07-02T16:02:18Z</time>
      </trkpt>
      <trkpt lat="44.10649" lon="3.15207">
        <ele>392</ele>
        <time>2013-07-02T16:02:22Z</time>
      </trkpt>
      <trkpt lat="44.10634" lon="3.15169">
        <ele>394</ele>
        <time>2013-07-02T16:02:26Z</time>
      </trkpt>
      <trkpt lat="44.1062" lon="3.15128">
        <ele>397</ele>
        <time>2013-07-02T16:02:30Z</time>
      </trkpt>
      <trkpt lat="44.10609" lon="3.15087">
        <ele>400</ele>
        <time>2013-07-02T16:02:34Z</time>
      </trkpt>
      <trkpt lat="44.10601" lon="3.15044">
        <ele>400</ele>
        <time>2013-07-02T16:02:38Z</time>
      </trkpt>
      <trkpt lat="44.10596" lon="3.14996">
        <ele>397</ele>
        <time>2013-07-02T16:02:42Z</time>
      </trkpt>
      <trkpt lat="44.10593" lon="3.14943">
        <ele>393</ele>
        <time>2013-07-02T16:02:46Z</time>
      </trkpt>
      <trkpt lat="44.10596" lon="3.14891">
        <ele>390</ele>
        <time>2013-07-02T16:02:50Z</time>
      </trkpt>
      <trkpt lat="44.10602" lon="3.1484">
        <ele>388</ele>
        <time>2013-07-02T16:02:54Z</time>
      </trkpt>
      <trkpt lat="44.10612" lon="3.1479">
        <ele>386</ele>
        <time>2013-07-02T16:02:58Z</time>
      </trkpt>
      <trkpt lat="44.10626" lon="3.14743">
        <ele>384</ele>
        <time>2013-07-02T16:03:02Z</time>
      </trkpt>
      <trkpt lat="44.1064" lon="3.14696">
        <ele>382</ele>
        <time>2013-07-02T16:03:06Z</time>
      </trkpt>
      <trkpt lat="44.10652" lon="3.1465">
        <ele>381</ele>
        <time>2013-07-02T16:03:10Z</time>
      </trkpt>
      <trkpt lat="44.10664" lon="3.14606">
        <ele>382</ele>
        <time>2013-07-02T16:03:14Z</time>
      </trkpt>
      <trkpt lat="44.1068" lon="3.14564">
        <ele>382</ele>
        <time>2013-07-02T16:03:18Z</time>
      </trkpt>
      <trkpt lat="44.10701" lon="3.14526">
        <ele>380</ele>
        <time>2013-07-02T16:03:22Z</time>
      </trkpt>
      <trkpt lat="44.10721" lon="3.14487">
        <ele>382</ele>
        <time>2013-07-02T16:03:26Z</time>
      </trkpt>
      <trkpt lat="44.10739" lon="3.1445">
        <ele>382</ele>
        <time>2013-07-02T16:03:30Z</time>
      </trkpt>
      <trkpt lat="44.10758" lon="3.14411">
        <ele>381</ele>
        <time>2013-07-02T16:03:34Z</time>
      </trkpt>
      <trkpt lat="44.10777" lon="3.14371">
        <ele>380</ele>
        <time>2013-07-02T16:03:38Z</time>
      </trkpt>
      <trkpt lat="44.10796" lon="3.14331">
        <ele>379</ele>
        <time>2013-07-02T16:03:42Z</time>
      </trkpt>
      <trkpt lat="44.10816" lon="3.14292">
        <ele>379</ele>
        <time>2013-07-02T16:03:46Z</time>
      </trkpt>
      <trkpt lat="44.10836" lon="3.14255">
        <ele>378</ele>
        <time>2013-07-02T16:03:50Z</time>
      </trkpt>
      <trkpt lat="44.10856" lon="3.14218">
        <ele>378</ele>
        <time>2013-07-02T16:03:54Z</time>
      </trkpt>
      <trkpt lat="44.10877" lon="3.14183">
        <ele>380</ele>
        <time>2013-07-02T16:03:58Z</time>
      </trkpt>
      <trkpt lat="44.10896" lon="3.14149">
        <ele>378</ele>
        <time>2013-07-02T16:04:02Z</time>
      </trkpt>
      <trkpt lat="44.10913" lon="3.14115">
        <ele>377</ele>
        <time>2013-07-02T16:04:06Z</time>
      </trkpt>
      <trkpt lat="44.1093" lon="3.14082">
        <ele>378</ele>
        <time>2013-07-02T16:04:10Z</time>
      </trkpt>
      <trkpt lat="44.10942" lon="3.14048">
        <ele>380</ele>
        <time>2013-07-02T16:04:14Z</time>
      </trkpt>
      <trkpt lat="44.10941" lon="3.14017">
        <ele>382</ele>
        <time>2013-07-02T16:04:18Z</time>
      </trkpt>
      <trkpt lat="44.10933" lon="3.13991">
        <ele>383</ele>
        <time>2013-07-02T16:04:22Z</time>
      </trkpt>
      <trkpt lat="44.10925" lon="3.13961">
        <ele>382</ele>
        <time>2013-07-02T16:04:26Z</time>
      </trkpt>
      <trkpt lat="44.10921" lon="3.13927">
        <ele>383</ele>
        <time>2013-07-02T16:04:30Z</time>
      </trkpt>
      <trkpt lat="44.10916" lon="3.1389">
        <ele>383</ele>
        <time>2013-07-02T16:04:34Z</time>
      </trkpt>
      <trkpt lat="44.10905" lon="3.13857">
        <ele>385</ele>
        <time>2013-07-02T16:04:38Z</time>
      </trkpt>
      <trkpt lat="44.10886" lon="3.13833">
        <ele>383</ele>
        <time>2013-07-02T16:04:42Z</time>
      </trkpt>
      <trkpt lat="44.10864" lon="3.13822">
        <ele>383</ele>
        <time>2013-07-02T16:04:46Z</time>
      </trkpt>
      <trkpt lat="44.1084" lon="3.13815">
        <ele>386</ele>
        <time>2013-07-02T16:04:50Z</time>
      </trkpt>
      <trkpt lat="44.10813" lon="3.13801">
        <ele>387</ele>
        <time>2013-07-02T16:04:54Z</time>
      </trkpt>
      <trkpt lat="44.10794" lon="3.13762">
        <ele>386</ele>
        <time>2013-07-02T16:04:58Z</time>
      </trkpt>
      <trkpt lat="44.10807" lon="3.1371">
        <ele>385</ele>
        <time>2013-07-02T16:05:02Z</time>
      </trkpt>
      <trkpt lat="44.1083" lon="3.13667">
        <ele>385</ele>
        <time>2013-07-02T16:05:06Z</time>
      </trkpt>
      <trkpt lat="44.10856" lon="3.13625">
        <ele>383</ele>
        <time>2013-07-02T16:05:10Z</time>
      </trkpt>
      <trkpt lat="44.1088" lon="3.13581">
        <ele>381</ele>
        <time>2013-07-02T16:05:14Z</time>
      </trkpt>
      <trkpt lat="44.109" lon="3.13535">
        <ele>379</ele>
        <time>2013-07-02T16:05:18Z</time>
      </trkpt>
      <trkpt lat="44.10919" lon="3.13487">
        <ele>377</ele>
        <time>2013-07-02T16:05:22Z</time>
      </trkpt>
      <trkpt lat="44.10938" lon="3.13439">
        <ele>377</ele>
        <time>2013-07-02T16:05:26Z</time>
      </trkpt>
      <trkpt lat="44.10956" lon="3.13392">
        <ele>375</ele>
        <time>2013-07-02T16:05:30Z</time>
      </trkpt>
      <trkpt lat="44.10972" lon="3.13343">
        <ele>375</ele>
        <time>2013-07-02T16:05:34Z</time>
      </trkpt>
      <trkpt lat="44.10975" lon="3.1329">
        <ele>375</ele>
        <time>2013-07-02T16:05:38Z</time>
      </trkpt>
      <trkpt lat="44.10969" lon="3.13239">
        <ele>374</ele>
        <time>2013-07-02T16:05:42Z</time>
      </trkpt>
      <trkpt lat="44.10961" lon="3.13189">
        <ele>376</ele>
        <time>2013-07-02T16:05:46Z</time>
      </trkpt>
      <trkpt lat="44.10954" lon="3.13135">
        <ele>374</ele>
        <time>2013-07-02T16:05:50Z</time>
      </trkpt>
      <trkpt lat="44.10944" lon="3.13088">
        <ele>374</ele>
        <time>2013-07-02T16:05:54Z</time>
      </trkpt>
      <trkpt lat="44.10931" lon="3.13042">
        <ele>379</ele>
        <time>2013-07-02T16:05:58Z</time>
      </trkpt>
      <trkpt lat="44.10914" lon="3.12999">
        <ele>382</ele>
        <time>2013-07-02T16:06:02Z</time>
      </trkpt>
      <trkpt lat="44.10894" lon="3.12958">
        <ele>383</ele>
        <time>2013-07-02T16:06:06Z</time>
      </trkpt>
      <trkpt lat="44.10872" lon="3.12921">
        <ele>384</ele>
        <time>2013-07-02T16:06:10Z</time>
      </trkpt>
      <trkpt lat="44.10848" lon="3.12889">
        <ele>389</ele>
        <time>2013-07-02T16:06:14Z</time>
      </trkpt>
      <trkpt lat="44.10823" lon="3.12863">
        <ele>388</ele>
        <time>2013-07-02T16:06:18Z</time>
      </trkpt>
      <trkpt lat="44.10795" lon="3.12852">
        <ele>390</ele>
        <time>2013-07-02T16:06:22Z</time>
      </trkpt>
      <trkpt lat="44.10762" lon="3.12852">
        <ele>390</ele>
        <time>2013-07-02T16:06:26Z</time>
      </trkpt>
      <trkpt lat="44.10724" lon="3.12853">
        <ele>383</ele>
        <time>2013-07-02T16:06:30Z</time>
      </trkpt>
      <trkpt lat="44.10685" lon="3.12848">
        <ele>384</ele>
        <time>2013-07-02T16:06:34Z</time>
      </trkpt>
      <trkpt lat="44.10651" lon="3.12849">
        <ele>382</ele>
        <time>2013-07-02T16:06:38Z</time>
      </trkpt>
      <trkpt lat="44.10617" lon="3.12851">
        <ele>380</ele>
        <time>2013-07-02T16:06:42Z</time>
      </trkpt>
      <trkpt lat="44.10585" lon="3.12855">
        <ele>380</ele>
        <time>2013-07-02T16:06:46Z</time>
      </trkpt>
      <trkpt lat="44.10552" lon="3.1286">
        <ele>382</ele>
        <time>2013-07-02T16:06:50Z</time>
      </trkpt>
      <trkpt lat="44.10523" lon="3.12866">
        <ele>378</ele>
        <time>2013-07-02T16:06:54Z</time>
      </trkpt>
      <trkpt lat="44.10497" lon="3.12878">
        <ele>378</ele>
        <time>2013-07-02T16:06:58Z</time>
      </trkpt>
      <trkpt lat="44.1047" lon="3.12891">
        <ele>381</ele>
        <time>2013-07-02T16:07:02Z</time>
      </trkpt>
      <trkpt lat="44.10442" lon="3.12916">
        <ele>384</ele>
        <time>2013-07-02T16:07:06Z</time>
      </trkpt>
      <trkpt lat="44.10411" lon="3.12945">
        <ele>379</ele>
        <time>2013-07-02T16:07:10Z</time>
      </trkpt>
      <trkpt lat="44.10376" lon="3.1297">
        <ele>379</ele>
        <time>2013-07-02T16:07:14Z</time>
      </trkpt>
      <trkpt lat="44.10334" lon="3.12978">
        <ele>375</ele>
        <time>2013-07-02T16:07:18Z</time>
      </trkpt>
      <trkpt lat="44.10288" lon="3.12968">
        <ele>376</ele>
        <time>2013-07-02T16:07:22Z</time>
      </trkpt>
      <trkpt lat="44.10243" lon="3.12936">
        <ele>380</ele>
        <time>2013-07-02T16:07:26Z</time>
      </trkpt>
      <trkpt lat="44.10204" lon="3.1291">
        <ele>382</ele>
        <time>2013-07-02T16:07:30Z</time>
      </trkpt>
      <trkpt lat="44.10186" lon="3.12865">
        <ele>380</ele>
        <time>2013-07-02T16:07:34Z</time>
      </trkpt>
      <trkpt lat="44.10179" lon="3.12815">
        <ele>378</ele>
        <time>2013-07-02T16:07:38Z</time>
      </trkpt>
      <trkpt lat="44.10174" lon="3.12769">
        <ele>378</ele>
        <time>2013-07-02T16:07:42Z</time>
      </trkpt>
      <trkpt lat="44.1017" lon="3.12719">
        <ele>377</ele>
        <time>2013-07-02T16:07:46Z</time>
      </trkpt>
      <trkpt lat="44.10165" lon="3.1266">
        <ele>379</ele>
        <time>2013-07-02T16:07:50Z</time>
      </trkpt>
      <trkpt lat="44.1016" lon="3.12605">
        <ele>374</ele>
        <time>2013-07-02T16:07:54Z</time>
      </trkpt>
      <trkpt lat="44.10153" lon="3.12557">
        <ele>373</ele>
        <time>2013-07-02T16:07:58Z</time>
      </trkpt>
      <trkpt lat="44.10146" lon="3.12508">
        <ele>370</ele>
        <time>2013-07-02T16:08:02Z</time>
      </trkpt>
      <trkpt lat="44.10141" lon="3.12462">
        <ele>371</ele>
        <time>2013-07-02T16:08:06Z</time>
      </trkpt>
      <trkpt lat="44.10133" lon="3.12414">
        <ele>371</ele>
        <time>2013-07-02T16:08:10Z</time>
      </trkpt>
      <trkpt lat="44.10124" lon="3.1237">
        <ele>370</ele>
        <time>2013-07-02T16:08:14Z</time>
      </trkpt>
      <trkpt lat="44.10119" lon="3.1233">
        <ele>371</ele>
        <time>2013-07-02T16:08:18Z</time>
      </trkpt>
      <trkpt lat="44.1012" lon="3.12281">
        <ele>370</ele>
        <time>2013-07-02T16:08:22Z</time>
      </trkpt>
      <trkpt lat="44.10121" lon="3.12232">
        <ele>372</ele>
        <time>2013-07-02T16:08:26Z</time>
      </trkpt>
      <trkpt lat="44.10119" lon="3.12182">
        <ele>372</ele>
        <time>2013-07-02T16:08:30Z</time>
      </trkpt>
      <trkpt lat="44.10118" lon="3.12132">
        <ele>373</ele>
        <time>2013-07-02T16:08:34Z</time>
      </trkpt>
      <trkpt lat="44.10118" lon="3.12084">
        <ele>373</ele>
        <time>2013-07-02T16:08:38Z</time>
      </trkpt>
      <trkpt lat="44.10118" lon="3.12036">
        <ele>372</ele>
        <time>2013-07-02T16:08:42Z</time>
      </trkpt>
      <trkpt lat="44.1012" lon="3.1199">
        <ele>371</ele>
        <time>2013-07-02T16:08:46Z</time>
      </trkpt>
      <trkpt lat="44.10122" lon="3.11944">
        <ele>372</ele>
        <time>2013-07-02T16:08:50Z</time>
      </trkpt>
      <trkpt lat="44.10124" lon="3.11901">
        <ele>373</ele>
        <time>2013-07-02T16:08:54Z</time>
      </trkpt>
      <trkpt lat="44.10128" lon="3.11856">
        <ele>372</ele>
        <time>2013-07-02T16:08:58Z</time>
      </trkpt>
      <trkpt lat="44.1013" lon="3.11815">
        <ele>374</ele>
        <time>2013-07-02T16:09:02Z</time>
      </trkpt>
      <trkpt lat="44.10133" lon="3.11771">
        <ele>377</ele>
        <time>2013-07-02T16:09:06Z</time>
      </trkpt>
      <trkpt lat="44.10139" lon="3.11722">
        <ele>377</ele>
        <time>2013-07-02T16:09:10Z</time>
      </trkpt>
      <trkpt lat="44.10148" lon="3.11678">
        <ele>374</ele>
        <time>2013-07-02T16:09:14Z</time>
      </trkpt>
      <trkpt lat="44.10159" lon="3.11634">
        <ele>371</ele>
        <time>2013-07-02T16:09:18Z</time>
      </trkpt>
      <trkpt lat="44.10156" lon="3.11591">
        <ele>371</ele>
        <time>2013-07-02T16:09:22Z</time>
      </trkpt>
      <trkpt lat="44.1014" lon="3.11554">
        <ele>373</ele>
        <time>2013-07-02T16:09:26Z</time>
      </trkpt>
      <trkpt lat="44.10119" lon="3.11522">
        <ele>374</ele>
        <time>2013-07-02T16:09:30Z</time>
      </trkpt>
      <trkpt lat="44.10094" lon="3.11495">
        <ele>379</ele>
        <time>2013-07-02T16:09:34Z</time>
      </trkpt>
      <trkpt lat="44.10069" lon="3.11467">
        <ele>380</ele>
        <time>2013-07-02T16:09:38Z</time>
      </trkpt>
      <trkpt lat="44.10043" lon="3.11432">
        <ele>374</ele>
        <time>2013-07-02T16:09:42Z</time>
      </trkpt>
      <trkpt lat="44.10024" lon="3.11389">
        <ele>378</ele>
        <time>2013-07-02T16:09:46Z</time>
      </trkpt>
      <trkpt lat="44.10014" lon="3.11344">
        <ele>375</ele>
        <time>2013-07-02T16:09:50Z</time>
      </trkpt>
      <trkpt lat="44.10005" lon="3.11294">
        <ele>374</ele>
        <time>2013-07-02T16:09:54Z</time>
      </trkpt>
      <trkpt lat="44.10001" lon="3.11244">
        <ele>372</ele>
        <time>2013-07-02T16:09:58Z</time>
      </trkpt>
      <trkpt lat="44.10006" lon="3.11191">
        <ele>370</ele>
        <time>2013-07-02T16:10:02Z</time>
      </trkpt>
      <trkpt lat="44.10017" lon="3.11139">
        <ele>369</ele>
        <time>2013-07-02T16:10:06Z</time>
      </trkpt>
      <trkpt lat="44.10026" lon="3.11086">
        <ele>367</ele>
        <time>2013-07-02T16:10:10Z</time>
      </trkpt>
      <trkpt lat="44.1003" lon="3.11035">
        <ele>366</ele>
        <time>2013-07-02T16:10:14Z</time>
      </trkpt>
      <trkpt lat="44.10035" lon="3.10985">
        <ele>365</ele>
        <time>2013-07-02T16:10:18Z</time>
      </trkpt>
      <trkpt lat="44.10038" lon="3.10935">
        <ele>362</ele>
        <time>2013-07-02T16:10:22Z</time>
      </trkpt>
      <trkpt lat="44.1004" lon="3.10884">
        <ele>360</ele>
        <time>2013-07-02T16:10:26Z</time>
      </trkpt>
      <trkpt lat="44.10043" lon="3.10836">
        <ele>364</ele>
        <time>2013-07-02T16:10:30Z</time>
      </trkpt>
      <trkpt lat="44.10047" lon="3.10785">
        <ele>366</ele>
        <time>2013-07-02T16:10:34Z</time>
      </trkpt>
      <trkpt lat="44.10051" lon="3.10734">
        <ele>368</ele>
        <time>2013-07-02T16:10:38Z</time>
      </trkpt>
      <trkpt lat="44.10055" lon="3.1068">
        <ele>366</ele>
        <time>2013-07-02T16:10:42Z</time>
      </trkpt>
      <trkpt lat="44.10058" lon="3.1063">
        <ele>364</ele>
        <time>2013-07-02T16:10:46Z</time>
      </trkpt>
      <trkpt lat="44.10058" lon="3.10588">
        <ele>364</ele>
        <time>2013-07-02T16:10:50Z</time>
      </trkpt>
      <trkpt lat="44.10054" lon="3.10549">
        <ele>367</ele>
        <time>2013-07-02T16:10:54Z</time>
      </trkpt>
      <trkpt lat="44.10056" lon="3.10501">
        <ele>368</ele>
        <time>2013-07-02T16:10:58Z</time>
      </trkpt>
      <trkpt lat="44.10058" lon="3.10456">
        <ele>372</ele>
        <time>2013-07-02T16:11:02Z</time>
      </trkpt>
      <trkpt lat="44.10057" lon="3.10406">
        <ele>359</ele>
        <time>2013-07-02T16:11:06Z</time>
      </trkpt>
      <trkpt lat="44.10047" lon="3.10353">
        <ele>369</ele>
        <time>2013-07-02T16:11:10Z</time>
      </trkpt>
      <trkpt lat="44.10027" lon="3.1031">
        <ele>368</ele>
        <time>2013-07-02T16:11:14Z</time>
      </trkpt>
      <trkpt lat="44.10014" lon="3.10265">
        <ele>369</ele>
        <time>2013-07-02T16:11:18Z</time>
      </trkpt>
      <trkpt lat="44.10004" lon="3.10207">
        <ele>372</ele>
        <time>2013-07-02T16:11:22Z</time>
      </trkpt>
      <trkpt lat="44.09998" lon="3.1015">
        <ele>365</ele>
        <time>2013-07-02T16:11:26Z</time>
      </trkpt>
      <trkpt lat="44.0999" lon="3.10099">
        <ele>361</ele>
        <time>2013-07-02T16:11:30Z</time>
      </trkpt>
      <trkpt lat="44.09984" lon="3.10051">
        <ele>360</ele>
        <time>2013-07-02T16:11:34Z</time>
      </trkpt>
      <trkpt lat="44.09982" lon="3.10006">
        <ele>366</ele>
        <time>2013-07-02T16:11:38Z</time>
      </trkpt>
      <trkpt lat="44.09983" lon="3.09959">
        <ele>366</ele>
        <time>2013-07-02T16:11:42Z</time>
      </trkpt>
      <trkpt lat="44.09985" lon="3.09909">
        <ele>362</ele>
        <time>2013-07-02T16:11:46Z</time>
      </trkpt>
      <trkpt lat="44.0999" lon="3.09865">
        <ele>361</ele>
        <time>2013-07-02T16:11:50Z</time>
      </trkpt>
      <trkpt lat="44.09995" lon="3.09833">
        <ele>360</ele>
        <time>2013-07-02T16:11:54Z</time>
      </trkpt>
      <trkpt lat="44.10003" lon="3.09794">
        <ele>364</ele>
        <time>2013-07-02T16:11:58Z</time>
      </trkpt>
      <trkpt lat="44.10021" lon="3.09748">
        <ele>374</ele>
        <time>2013-07-02T16:12:02Z</time>
      </trkpt>
      <trkpt lat="44.10038" lon="3.09709">
        <ele>379</ele>
        <time>2013-07-02T16:12:06Z</time>
      </trkpt>
      <trkpt lat="44.10059" lon="3.09656">
        <ele>369</ele>
        <time>2013-07-02T16:12:10Z</time>
      </trkpt>
      <trkpt lat="44.10077" lon="3.09607">
        <ele>362</ele>
        <time>2013-07-02T16:12:14Z</time>
      </trkpt>
      <trkpt lat="44.10092" lon="3.09564">
        <ele>361</ele>
        <time>2013-07-02T16:12:18Z</time>
      </trkpt>
      <trkpt lat="44.10107" lon="3.09521">
        <ele>360</ele>
        <time>2013-07-02T16:12:22Z</time>
      </trkpt>
      <trkpt lat="44.10122" lon="3.09479">
        <ele>360</ele>
        <time>2013-07-02T16:12:26Z</time>
      </trkpt>
      <trkpt lat="44.10137" lon="3.09436">
        <ele>360</ele>
        <time>2013-07-02T16:12:30Z</time>
      </trkpt>
      <trkpt lat="44.10149" lon="3.09393">
        <ele>360</ele>
        <time>2013-07-02T16:12:34Z</time>
      </trkpt>
      <trkpt lat="44.10162" lon="3.09343">
        <ele>361</ele>
        <time>2013-07-02T16:12:38Z</time>
      </trkpt>
      <trkpt lat="44.10186" lon="3.09311">
        <ele>360</ele>
        <time>2013-07-02T16:12:42Z</time>
      </trkpt>
      <trkpt lat="44.10199" lon="3.09272">
        <ele>363</ele>
        <time>2013-07-02T16:12:46Z</time>
      </trkpt>
      <trkpt lat="44.10207" lon="3.09232">
        <ele>363</ele>
        <time>2013-07-02T16:12:50Z</time>
      </trkpt>
      <trkpt lat="44.1023" lon="3.09204">
        <ele>364</ele>
        <time>2013-07-02T16:12:54Z</time>
      </trkpt>
      <trkpt lat="44.10254" lon="3.09171">
        <ele>366</ele>
        <time>2013-07-02T16:12:58Z</time>
      </trkpt>
      <trkpt lat="44.10274" lon="3.09129">
        <ele>363</ele>
        <time>2013-07-02T16:13:02Z</time>
      </trkpt>
      <trkpt lat="44.10293" lon="3.09088">
        <ele>362</ele>
        <time>2013-07-02T16:13:06Z</time>
      </trkpt>
      <trkpt lat="44.10312" lon="3.09045">
        <ele>359</ele>
        <time>2013-07-02T16:13:10Z</time>
      </trkpt>
      <trkpt lat="44.10321" lon="3.09002">
        <ele>363</ele>
        <time>2013-07-02T16:13:15Z</time>
      </trkpt>
      <trkpt lat="44.10319" lon="3.08954">
        <ele>362</ele>
        <time>2013-07-02T16:13:18Z</time>
      </trkpt>
      <trkpt lat="44.1031" lon="3.08911">
        <ele>364</ele>
        <time>2013-07-02T16:13:22Z</time>
      </trkpt>
      <trkpt lat="44.103" lon="3.08866">
        <ele>362</ele>
        <time>2013-07-02T16:13:26Z</time>
      </trkpt>
      <trkpt lat="44.10283" lon="3.08828">
        <ele>362</ele>
        <time>2013-07-02T16:13:30Z</time>
      </trkpt>
      <trkpt lat="44.10267" lon="3.088">
        <ele>365</ele>
        <time>2013-07-02T16:13:34Z</time>
      </trkpt>
      <trkpt lat="44.10297" lon="3.08794">
        <ele>360</ele>
        <time>2013-07-02T16:13:42Z</time>
      </trkpt>
      <trkpt lat="44.10317" lon="3.0881">
        <ele>362</ele>
        <time>2013-07-02T16:13:46Z</time>
      </trkpt>
      <trkpt lat="44.10326" lon="3.08823">
        <ele>369</ele>
        <time>2013-07-02T16:13:50Z</time>
      </trkpt>
      <trkpt lat="44.10323" lon="3.08837">
        <ele>374</ele>
        <time>2013-07-02T16:13:54Z</time>
      </trkpt>
    </trkseg>
  </trk>
</gpx>